PWSweather.com
Personal Weather Stations
Station Observations
OZIERI
Punta Idda, OzieriIT

Punta IddaOzieriIT

Lat: 40.584142, Lon: 9.007657999999992

Elevation: 1483

Station Type: Lacrosse ws2350

www.ozierimeteo.altervista.com

High Low Average
Temperature 84.0°F28.9°F 62.2°F16.8°F 72.8°F22.7°F
Dew Point 62.2°F16.8°F 44.2°F6.8°F 51.8°F11.0°F
Winds 8.5 mph ENE13.7 mph ENE 0.2 mph 0.3 mph 2.6 mph 4.2 mph
Wind Gusts 17.0 mph27.4 mph -- 4.9 mph7.9 mph
Humidity 85% 28% 52%
Pressure 30.09 in1019.00 in 30.02 in1016.60 in -
Precipitation 0.00 in0.00 in - -
Hour Temp Dew Point Humidity Winds Wind Gusts Pressure Precip Precip Rate Daily Precip Total
12:00 AM 62.6°F17.0°C 54.9°F12.7°C 76% 2.2 mph ESE3.5 kmh ESE 3.1 mph5.0 kmh 30.08 in1018.6 mb 0.00 in0.0 mm 0.00 in0.0 mm 0.00 in0.0 mm
12:02 AM 62.4°F16.9°C 54.7°F12.6°C 76% 1.3 mph SSE2.1 kmh SSE 2.5 mph4.0 kmh 30.07 in1018.3 mb 0.00 in0.0 mm 0.00 in0.0 mm 0.00 in0.0 mm
12:04 AM 62.4°F16.9°C 55.0°F12.8°C 77% 1.1 mph SSE1.8 kmh SSE 1.6 mph2.6 kmh 30.07 in1018.3 mb 0.00 in0.0 mm 0.00 in0.0 mm 0.00 in0.0 mm
12:06 AM 62.6°F17.0°C 55.2°F12.9°C 77% 0.9 mph SSE1.4 kmh SSE 2.7 mph4.3 kmh 30.07 in1018.3 mb 0.00 in0.0 mm 0.00 in0.0 mm 0.00 in0.0 mm
12:08 AM 62.6°F17.0°C 55.2°F12.9°C 77% 0.7 mph SE1.1 kmh SE 1.3 mph2.1 kmh 30.07 in1018.3 mb 0.00 in0.0 mm 0.00 in0.0 mm 0.00 in0.0 mm
12:11 AM 62.6°F17.0°C 55.2°F12.9°C 77% 0.9 mph SE1.4 kmh SE 2.2 mph3.5 kmh 30.07 in1018.3 mb 0.00 in0.0 mm 0.00 in0.0 mm 0.00 in0.0 mm
12:13 AM 62.6°F17.0°C 55.2°F12.9°C 77% 0.4 mph SSE0.6 kmh SSE -- 30.07 in1018.3 mb 0.00 in0.0 mm 0.00 in0.0 mm 0.00 in0.0 mm
12:15 AM 62.6°F17.0°C 55.2°F12.9°C 77% 0.4 mph E0.6 kmh E 1.3 mph2.1 kmh 30.07 in1018.3 mb 0.00 in0.0 mm 0.00 in0.0 mm 0.00 in0.0 mm
12:18 AM 62.6°F17.0°C 55.2°F12.9°C 77% 0.9 mph ESE1.4 kmh ESE 2.9 mph4.7 kmh 30.07 in1018.3 mb 0.00 in0.0 mm 0.00 in0.0 mm 0.00 in0.0 mm
12:20 AM 62.4°F16.9°C 55.0°F12.8°C 77% 0.9 mph SE1.4 kmh SE 2.5 mph4.0 kmh 30.07 in1018.3 mb 0.00 in0.0 mm 0.00 in0.0 mm 0.00 in0.0 mm
12:22 AM 62.6°F17.0°C 55.2°F12.9°C 77% 1.3 mph SE2.1 kmh SE 4.5 mph7.2 kmh 30.07 in1018.3 mb 0.00 in0.0 mm 0.00 in0.0 mm 0.00 in0.0 mm
12:24 AM 62.4°F16.9°C 55.4°F13.0°C 78% 1.3 mph SE2.1 kmh SE 2.5 mph4.0 kmh 30.07 in1018.3 mb 0.00 in0.0 mm 0.00 in0.0 mm 0.00 in0.0 mm
12:26 AM 62.6°F17.0°C 55.6°F13.1°C 78% 1.3 mph SE2.1 kmh SE 3.1 mph5.0 kmh 30.07 in1018.3 mb 0.00 in0.0 mm 0.00 in0.0 mm 0.00 in0.0 mm
12:28 AM 62.4°F16.9°C 55.4°F13.0°C 78% 1.6 mph SE2.6 kmh SE 4.0 mph6.4 kmh 30.07 in1018.3 mb 0.00 in0.0 mm 0.00 in0.0 mm 0.00 in0.0 mm
12:30 AM 62.4°F16.9°C 55.4°F13.0°C 78% 2.5 mph ESE4.0 kmh ESE 4.5 mph7.2 kmh 30.07 in1018.3 mb 0.00 in0.0 mm 0.00 in0.0 mm 0.00 in0.0 mm
12:32 AM 62.4°F16.9°C 55.4°F13.0°C 78% 2.2 mph SSE3.5 kmh SSE 3.8 mph6.1 kmh 30.07 in1018.3 mb 0.00 in0.0 mm 0.00 in0.0 mm 0.00 in0.0 mm
12:35 AM 62.4°F16.9°C 55.4°F13.0°C 78% 2.0 mph SE3.2 kmh SE 3.4 mph5.5 kmh 30.07 in1018.3 mb 0.00 in0.0 mm 0.00 in0.0 mm 0.00 in0.0 mm
12:37 AM 62.2°F16.8°C 55.2°F12.9°C 78% 1.6 mph SE2.6 kmh SE 2.5 mph4.0 kmh 30.07 in1018.3 mb 0.00 in0.0 mm 0.00 in0.0 mm 0.00 in0.0 mm
12:39 AM 62.2°F16.8°C 55.2°F12.9°C 78% 1.8 mph SE2.9 kmh SE 3.6 mph5.8 kmh 30.07 in1018.3 mb 0.00 in0.0 mm 0.00 in0.0 mm 0.00 in0.0 mm
12:41 AM 62.2°F16.8°C 55.6°F13.1°C 79% 2.2 mph ESE3.5 kmh ESE 4.0 mph6.4 kmh 30.07 in1018.3 mb 0.00 in0.0 mm 0.00 in0.0 mm 0.00 in0.0 mm
12:43 AM 62.2°F16.8°C 55.6°F13.1°C 79% 2.2 mph ESE3.5 kmh ESE 4.3 mph6.9 kmh 30.07 in1018.3 mb 0.00 in0.0 mm 0.00 in0.0 mm 0.00 in0.0 mm
12:46 AM 62.4°F16.9°C 55.8°F13.2°C 79% 2.5 mph SSE4.0 kmh SSE 4.0 mph6.4 kmh 30.07 in1018.3 mb 0.00 in0.0 mm 0.00 in0.0 mm 0.00 in0.0 mm
12:48 AM 62.2°F16.8°C 55.6°F13.1°C 79% 2.5 mph SSE4.0 kmh SSE 4.5 mph7.2 kmh 30.06 in1017.9 mb 0.00 in0.0 mm 0.00 in0.0 mm 0.00 in0.0 mm
12:50 AM 62.2°F16.8°C 55.6°F13.1°C 79% 2.5 mph SSE4.0 kmh SSE 3.1 mph5.0 kmh 30.07 in1018.3 mb 0.00 in0.0 mm 0.00 in0.0 mm 0.00 in0.0 mm
12:52 AM 62.4°F16.9°C 55.8°F13.2°C 79% 1.6 mph SSE2.6 kmh SSE 3.6 mph5.8 kmh 30.07 in1018.3 mb 0.00 in0.0 mm 0.00 in0.0 mm 0.00 in0.0 mm
12:55 AM 62.4°F16.9°C 56.1°F13.4°C 80% 0.9 mph ESE1.4 kmh ESE 1.1 mph1.8 kmh 30.07 in1018.3 mb 0.00 in0.0 mm 0.00 in0.0 mm 0.00 in0.0 mm
12:57 AM 62.4°F16.9°C 56.1°F13.4°C 80% 1.8 mph SSE2.9 kmh SSE 3.6 mph5.8 kmh 30.07 in1018.3 mb 0.00 in0.0 mm 0.00 in0.0 mm 0.00 in0.0 mm
12:59 AM 62.4°F16.9°C 56.1°F13.4°C 80% 1.3 mph SE2.1 kmh SE 3.1 mph5.0 kmh 30.07 in1018.3 mb 0.00 in0.0 mm 0.00 in0.0 mm 0.00 in0.0 mm
01:01 AM 62.4°F16.9°C 56.1°F13.4°C 80% 1.1 mph SE1.8 kmh SE 2.2 mph3.5 kmh 30.07 in1018.3 mb 0.00 in0.0 mm 0.00 in0.0 mm 0.00 in0.0 mm
01:04 AM 62.6°F17.0°C 56.3°F13.5°C 80% 0.7 mph S1.1 kmh S 1.6 mph2.6 kmh 30.07 in1018.3 mb 0.00 in0.0 mm 0.00 in0.0 mm 0.00 in0.0 mm
01:06 AM 62.8°F17.1°C 56.5°F13.6°C 80% 0.7 mph S1.1 kmh S 2.2 mph3.5 kmh 30.07 in1018.3 mb 0.00 in0.0 mm 0.00 in0.0 mm 0.00 in0.0 mm
01:08 AM 63.0°F17.2°C 56.7°F13.7°C 80% 0.4 mph SSE0.6 kmh SSE -- 30.06 in1017.9 mb 0.00 in0.0 mm 0.00 in0.0 mm 0.00 in0.0 mm
01:10 AM 63.0°F17.2°C 56.7°F13.7°C 80% 0.4 mph ENE0.6 kmh ENE 2.5 mph4.0 kmh 30.07 in1018.3 mb 0.00 in0.0 mm 0.00 in0.0 mm 0.00 in0.0 mm
01:13 AM 63.0°F17.2°C 56.7°F13.7°C 80% 0.4 mph SSE0.6 kmh SSE 2.9 mph4.7 kmh 30.06 in1017.9 mb 0.00 in0.0 mm 0.00 in0.0 mm 0.00 in0.0 mm
01:15 AM 63.0°F17.2°C 56.7°F13.7°C 80% 0.9 mph ESE1.4 kmh ESE 3.8 mph6.1 kmh 30.06 in1017.9 mb 0.00 in0.0 mm 0.00 in0.0 mm 0.00 in0.0 mm
01:17 AM 63.1°F17.3°C 56.8°F13.8°C 80% 0.9 mph ESE1.4 kmh ESE 2.2 mph3.5 kmh 30.06 in1017.9 mb 0.00 in0.0 mm 0.00 in0.0 mm 0.00 in0.0 mm
01:19 AM 63.1°F17.3°C 56.8°F13.8°C 80% 1.3 mph ESE2.1 kmh ESE 3.1 mph5.0 kmh 30.06 in1017.9 mb 0.00 in0.0 mm 0.00 in0.0 mm 0.00 in0.0 mm
01:21 AM 63.0°F17.2°C 56.7°F13.7°C 80% 1.1 mph E1.8 kmh E 3.1 mph5.0 kmh 30.06 in1017.9 mb 0.00 in0.0 mm 0.00 in0.0 mm 0.00 in0.0 mm
01:24 AM 63.0°F17.2°C 56.7°F13.7°C 80% 1.1 mph SE1.8 kmh SE 2.2 mph3.5 kmh 30.06 in1017.9 mb 0.00 in0.0 mm 0.00 in0.0 mm 0.00 in0.0 mm
01:26 AM 63.0°F17.2°C 56.7°F13.7°C 80% 1.1 mph E1.8 kmh E 2.5 mph4.0 kmh 30.06 in1017.9 mb 0.00 in0.0 mm 0.00 in0.0 mm 0.00 in0.0 mm
01:28 AM 62.8°F17.1°C 56.5°F13.6°C 80% 1.6 mph ESE2.6 kmh ESE 3.8 mph6.1 kmh 30.06 in1017.9 mb 0.00 in0.0 mm 0.00 in0.0 mm 0.00 in0.0 mm
01:30 AM 62.8°F17.1°C 56.5°F13.6°C 80% 1.6 mph SE2.6 kmh SE 3.1 mph5.0 kmh 30.06 in1017.9 mb 0.00 in0.0 mm 0.00 in0.0 mm 0.00 in0.0 mm
01:33 AM 62.8°F17.1°C 56.5°F13.6°C 80% 2.0 mph ESE3.2 kmh ESE 3.6 mph5.8 kmh 30.06 in1017.9 mb 0.00 in0.0 mm 0.00 in0.0 mm 0.00 in0.0 mm
01:35 AM 62.8°F17.1°C 56.5°F13.6°C 80% 1.6 mph SE2.6 kmh SE 2.9 mph4.7 kmh 30.06 in1017.9 mb 0.00 in0.0 mm 0.00 in0.0 mm 0.00 in0.0 mm
01:37 AM 62.8°F17.1°C 56.5°F13.6°C 80% 1.6 mph ESE2.6 kmh ESE 2.9 mph4.7 kmh 30.06 in1017.9 mb 0.00 in0.0 mm 0.00 in0.0 mm 0.00 in0.0 mm
01:39 AM 63.0°F17.2°C 56.7°F13.7°C 80% 1.6 mph SE2.6 kmh SE 3.6 mph5.8 kmh 30.06 in1017.9 mb 0.00 in0.0 mm 0.00 in0.0 mm 0.00 in0.0 mm
01:42 AM 63.1°F17.3°C 56.8°F13.8°C 80% 1.3 mph SE2.1 kmh SE 2.0 mph3.2 kmh 30.06 in1017.9 mb 0.00 in0.0 mm 0.00 in0.0 mm 0.00 in0.0 mm
01:44 AM 63.1°F17.3°C 57.2°F14.0°C 81% 2.0 mph ESE3.2 kmh ESE 4.3 mph6.9 kmh 30.06 in1017.9 mb 0.00 in0.0 mm 0.00 in0.0 mm 0.00 in0.0 mm
01:46 AM 63.1°F17.3°C 57.2°F14.0°C 81% 2.5 mph SE4.0 kmh SE 3.6 mph5.8 kmh 30.07 in1018.3 mb 0.00 in0.0 mm 0.00 in0.0 mm 0.00 in0.0 mm
01:48 AM 63.1°F17.3°C 57.2°F14.0°C 81% 1.6 mph SSE2.6 kmh SSE 1.3 mph2.1 kmh 30.07 in1018.3 mb 0.00 in0.0 mm 0.00 in0.0 mm 0.00 in0.0 mm
01:50 AM 63.3°F17.4°C 57.4°F14.1°C 81% 1.1 mph SSE1.8 kmh SSE 1.6 mph2.6 kmh 30.06 in1017.9 mb 0.00 in0.0 mm 0.00 in0.0 mm 0.00 in0.0 mm
01:53 AM 63.3°F17.4°C 57.4°F14.1°C 81% 2.0 mph SE3.2 kmh SE 4.3 mph6.9 kmh 30.06 in1017.9 mb 0.00 in0.0 mm 0.00 in0.0 mm 0.00 in0.0 mm
01:55 AM 63.3°F17.4°C 57.4°F14.1°C 81% 2.9 mph ESE4.7 kmh ESE 4.0 mph6.4 kmh 30.06 in1017.9 mb 0.00 in0.0 mm 0.00 in0.0 mm 0.00 in0.0 mm
01:57 AM 63.1°F17.3°C 57.2°F14.0°C 81% 2.2 mph SE3.5 kmh SE 2.0 mph3.2 kmh 30.06 in1017.9 mb 0.00 in0.0 mm 0.00 in0.0 mm 0.00 in0.0 mm
01:59 AM 63.1°F17.3°C 57.2°F14.0°C 81% 1.1 mph SE1.8 kmh SE 2.0 mph3.2 kmh 30.07 in1018.3 mb 0.00 in0.0 mm 0.00 in0.0 mm 0.00 in0.0 mm
02:06 AM 63.1°F17.3°C 57.2°F14.0°C 81% 1.1 mph ESE1.8 kmh ESE -- 30.07 in1018.3 mb 0.00 in0.0 mm 0.00 in0.0 mm 0.00 in0.0 mm
02:08 AM 63.0°F17.2°C 57.0°F13.9°C 81% 3.1 mph SE5.0 kmh SE 5.1 mph8.2 kmh 30.06 in1017.9 mb 0.00 in0.0 mm 0.00 in0.0 mm 0.00 in0.0 mm
02:10 AM 62.8°F17.1°C 56.8°F13.8°C 81% 2.9 mph SSE4.7 kmh SSE 3.4 mph5.5 kmh 30.06 in1017.9 mb 0.00 in0.0 mm 0.00 in0.0 mm 0.00 in0.0 mm
02:13 AM 62.6°F17.0°C 56.7°F13.7°C 81% 2.9 mph SE4.7 kmh SE 4.5 mph7.2 kmh 30.06 in1017.9 mb 0.00 in0.0 mm 0.00 in0.0 mm 0.00 in0.0 mm
02:15 AM 62.4°F16.9°C 56.5°F13.6°C 81% 4.0 mph ESE6.4 kmh ESE 6.3 mph10.1 kmh 30.07 in1018.3 mb 0.00 in0.0 mm 0.00 in0.0 mm 0.00 in0.0 mm
02:17 AM 62.2°F16.8°C 56.3°F13.5°C 81% 4.3 mph ESE6.9 kmh ESE 6.5 mph10.5 kmh 30.07 in1018.3 mb 0.00 in0.0 mm 0.00 in0.0 mm 0.00 in0.0 mm
02:19 AM 62.2°F16.8°C 56.7°F13.7°C 82% 4.0 mph SE6.4 kmh SE 4.7 mph7.6 kmh 30.07 in1018.3 mb 0.00 in0.0 mm 0.00 in0.0 mm 0.00 in0.0 mm
02:22 AM 62.2°F16.8°C 56.7°F13.7°C 82% 3.8 mph ESE6.1 kmh ESE 4.5 mph7.2 kmh 30.07 in1018.3 mb 0.00 in0.0 mm 0.00 in0.0 mm 0.00 in0.0 mm
02:24 AM 62.4°F16.9°C 56.8°F13.8°C 82% 3.8 mph SE6.1 kmh SE 4.0 mph6.4 kmh 30.07 in1018.3 mb 0.00 in0.0 mm 0.00 in0.0 mm 0.00 in0.0 mm
02:26 AM 62.4°F16.9°C 56.8°F13.8°C 82% 3.6 mph ESE5.8 kmh ESE 4.0 mph6.4 kmh 30.07 in1018.3 mb 0.00 in0.0 mm 0.00 in0.0 mm 0.00 in0.0 mm
02:28 AM 62.6°F17.0°C 57.0°F13.9°C 82% 3.1 mph SE5.0 kmh SE 3.4 mph5.5 kmh 30.07 in1018.3 mb 0.00 in0.0 mm 0.00 in0.0 mm 0.00 in0.0 mm
02:30 AM 62.8°F17.1°C 57.2°F14.0°C 82% 2.2 mph ESE3.5 kmh ESE 2.5 mph4.0 kmh 30.06 in1017.9 mb 0.00 in0.0 mm 0.00 in0.0 mm 0.00 in0.0 mm
02:33 AM 62.8°F17.1°C 57.2°F14.0°C 82% 1.1 mph SE1.8 kmh SE 1.3 mph2.1 kmh 30.06 in1017.9 mb 0.00 in0.0 mm 0.00 in0.0 mm 0.00 in0.0 mm
02:35 AM 63.0°F17.2°C 57.4°F14.1°C 82% 0.7 mph SSE1.1 kmh SSE -- 30.06 in1017.9 mb 0.00 in0.0 mm 0.00 in0.0 mm 0.00 in0.0 mm
02:37 AM 62.8°F17.1°C 57.2°F14.0°C 82% 0.9 mph SSE1.4 kmh SSE 2.5 mph4.0 kmh 30.06 in1017.9 mb 0.00 in0.0 mm 0.00 in0.0 mm 0.00 in0.0 mm
02:39 AM 62.8°F17.1°C 57.2°F14.0°C 82% 0.7 mph SSE1.1 kmh SSE 1.1 mph1.8 kmh 30.06 in1017.9 mb 0.00 in0.0 mm 0.00 in0.0 mm 0.00 in0.0 mm
02:41 AM 62.8°F17.1°C 57.2°F14.0°C 82% 0.9 mph S1.4 kmh S 2.2 mph3.5 kmh 30.06 in1017.9 mb 0.00 in0.0 mm 0.00 in0.0 mm 0.00 in0.0 mm
02:44 AM 63.0°F17.2°C 57.4°F14.1°C 82% 0.7 mph SSE1.1 kmh SSE 2.0 mph3.2 kmh 30.06 in1017.9 mb 0.00 in0.0 mm 0.00 in0.0 mm 0.00 in0.0 mm
02:46 AM 63.0°F17.2°C 57.4°F14.1°C 82% 0.4 mph SE0.6 kmh SE -- 30.06 in1017.9 mb 0.00 in0.0 mm 0.00 in0.0 mm 0.00 in0.0 mm
02:48 AM 63.0°F17.2°C 57.4°F14.1°C 82% 0.2 mph SE0.3 kmh SE -- 30.06 in1017.9 mb 0.00 in0.0 mm 0.00 in0.0 mm 0.00 in0.0 mm
02:50 AM 63.0°F17.2°C 57.4°F14.1°C 82% 0.2 mph SE0.3 kmh SE -- 30.06 in1017.9 mb 0.00 in0.0 mm 0.00 in0.0 mm 0.00 in0.0 mm
02:53 AM 63.0°F17.2°C 57.4°F14.1°C 82% 0.2 mph E0.3 kmh E -- 30.06 in1017.9 mb 0.00 in0.0 mm 0.00 in0.0 mm 0.00 in0.0 mm
02:55 AM 63.0°F17.2°C 57.4°F14.1°C 82% 0.9 mph SSE1.4 kmh SSE 2.2 mph3.5 kmh 30.06 in1017.9 mb 0.00 in0.0 mm 0.00 in0.0 mm 0.00 in0.0 mm
02:57 AM 63.0°F17.2°C 57.4°F14.1°C 82% 1.1 mph SSE1.8 kmh SSE 2.2 mph3.5 kmh 30.06 in1017.9 mb 0.00 in0.0 mm 0.00 in0.0 mm 0.00 in0.0 mm
02:59 AM 63.1°F17.3°C 57.9°F14.4°C 83% 0.9 mph ESE1.4 kmh ESE 2.2 mph3.5 kmh 30.06 in1017.9 mb 0.00 in0.0 mm 0.00 in0.0 mm 0.00 in0.0 mm
03:02 AM 63.1°F17.3°C 57.9°F14.4°C 83% 1.3 mph S2.1 kmh S 3.8 mph6.1 kmh 30.06 in1017.9 mb 0.00 in0.0 mm 0.00 in0.0 mm 0.00 in0.0 mm
03:04 AM 63.1°F17.3°C 57.9°F14.4°C 83% 0.7 mph SSE1.1 kmh SSE -- 30.06 in1017.9 mb 0.00 in0.0 mm 0.00 in0.0 mm 0.00 in0.0 mm
03:06 AM 63.1°F17.3°C 57.9°F14.4°C 83% 0.4 mph S0.6 kmh S 0.7 mph1.1 kmh 30.05 in1017.6 mb 0.00 in0.0 mm 0.00 in0.0 mm 0.00 in0.0 mm
03:08 AM 63.1°F17.3°C 57.9°F14.4°C 83% 0.2 mph ESE0.3 kmh ESE -- 30.05 in1017.6 mb 0.00 in0.0 mm 0.00 in0.0 mm 0.00 in0.0 mm
03:10 AM 63.1°F17.3°C 57.9°F14.4°C 83% 0.2 mph ESE0.3 kmh ESE -- 30.06 in1017.9 mb 0.00 in0.0 mm 0.00 in0.0 mm 0.00 in0.0 mm
03:12 AM 63.1°F17.3°C 57.9°F14.4°C 83% 0.4 mph ESE0.6 kmh ESE 2.2 mph3.5 kmh 30.05 in1017.6 mb 0.00 in0.0 mm 0.00 in0.0 mm 0.00 in0.0 mm
03:14 AM 63.1°F17.3°C 57.9°F14.4°C 83% 0.4 mph SE0.6 kmh SE 1.6 mph2.6 kmh 30.05 in1017.6 mb 0.00 in0.0 mm 0.00 in0.0 mm 0.00 in0.0 mm
03:16 AM 63.0°F17.2°C 57.7°F14.3°C 83% 0.2 mph SE0.3 kmh SE -- 30.05 in1017.6 mb 0.00 in0.0 mm 0.00 in0.0 mm 0.00 in0.0 mm
03:19 AM 63.0°F17.2°C 57.7°F14.3°C 83% 0.2 mph ESE0.3 kmh ESE 0.7 mph1.1 kmh 30.05 in1017.6 mb 0.00 in0.0 mm 0.00 in0.0 mm 0.00 in0.0 mm
03:21 AM 63.0°F17.2°C 57.7°F14.3°C 83% 0.9 mph SE1.4 kmh SE 2.2 mph3.5 kmh 30.05 in1017.6 mb 0.00 in0.0 mm 0.00 in0.0 mm 0.00 in0.0 mm
03:23 AM 63.0°F17.2°C 57.7°F14.3°C 83% 2.0 mph ESE3.2 kmh ESE 4.0 mph6.4 kmh 30.05 in1017.6 mb 0.00 in0.0 mm 0.00 in0.0 mm 0.00 in0.0 mm
03:25 AM 63.0°F17.2°C 57.7°F14.3°C 83% 2.5 mph SE4.0 kmh SE 4.3 mph6.9 kmh 30.05 in1017.6 mb 0.00 in0.0 mm 0.00 in0.0 mm 0.00 in0.0 mm
03:27 AM 63.0°F17.2°C 57.7°F14.3°C 83% 2.9 mph SE4.7 kmh SE 3.8 mph6.1 kmh 30.05 in1017.6 mb 0.00 in0.0 mm 0.00 in0.0 mm 0.00 in0.0 mm
03:30 AM 63.1°F17.3°C 58.3°F14.6°C 84% 3.1 mph SE5.0 kmh SE 4.0 mph6.4 kmh 30.05 in1017.6 mb 0.00 in0.0 mm 0.00 in0.0 mm 0.00 in0.0 mm
03:32 AM 63.1°F17.3°C 58.3°F14.6°C 84% 3.4 mph ESE5.5 kmh ESE 4.5 mph7.2 kmh 30.05 in1017.6 mb 0.00 in0.0 mm 0.00 in0.0 mm 0.00 in0.0 mm
03:34 AM 63.1°F17.3°C 58.3°F14.6°C 84% 3.1 mph E5.0 kmh E 3.8 mph6.1 kmh 30.05 in1017.6 mb 0.00 in0.0 mm 0.00 in0.0 mm 0.00 in0.0 mm
03:36 AM 63.1°F17.3°C 58.3°F14.6°C 84% 2.7 mph SE4.3 kmh SE 4.0 mph6.4 kmh 30.05 in1017.6 mb 0.00 in0.0 mm 0.00 in0.0 mm 0.00 in0.0 mm
03:38 AM 63.3°F17.4°C 58.5°F14.7°C 84% 2.7 mph ESE4.3 kmh ESE 4.0 mph6.4 kmh 30.05 in1017.6 mb 0.00 in0.0 mm 0.00 in0.0 mm 0.00 in0.0 mm
03:41 AM 63.3°F17.4°C 58.5°F14.7°C 84% 2.7 mph SSE4.3 kmh SSE 3.8 mph6.1 kmh 30.05 in1017.6 mb 0.00 in0.0 mm 0.00 in0.0 mm 0.00 in0.0 mm
03:43 AM 63.1°F17.3°C 58.3°F14.6°C 84% 2.5 mph ESE4.0 kmh ESE 3.8 mph6.1 kmh 30.04 in1017.3 mb 0.00 in0.0 mm 0.00 in0.0 mm 0.00 in0.0 mm
03:45 AM 63.3°F17.4°C 58.5°F14.7°C 84% 1.6 mph SSE2.6 kmh SSE 3.1 mph5.0 kmh 30.05 in1017.6 mb 0.00 in0.0 mm 0.00 in0.0 mm 0.00 in0.0 mm
03:47 AM 63.3°F17.4°C 58.5°F14.7°C 84% 1.1 mph SE1.8 kmh SE 1.6 mph2.6 kmh 30.05 in1017.6 mb 0.00 in0.0 mm 0.00 in0.0 mm 0.00 in0.0 mm
03:50 AM 63.3°F17.4°C 58.5°F14.7°C 84% 0.7 mph SE1.1 kmh SE 1.3 mph2.1 kmh 30.04 in1017.3 mb 0.00 in0.0 mm 0.00 in0.0 mm 0.00 in0.0 mm
03:52 AM 63.3°F17.4°C 58.5°F14.7°C 84% 0.4 mph SE0.6 kmh SE -- 30.04 in1017.3 mb 0.00 in0.0 mm 0.00 in0.0 mm 0.00 in0.0 mm
03:54 AM 63.3°F17.4°C 58.5°F14.7°C 84% 0.9 mph ESE1.4 kmh ESE 2.5 mph4.0 kmh 30.04 in1017.3 mb 0.00 in0.0 mm 0.00 in0.0 mm 0.00 in0.0 mm
03:56 AM 63.7°F17.6°C 58.8°F14.9°C 84% 1.8 mph ESE2.9 kmh ESE 2.9 mph4.7 kmh 30.04 in1017.3 mb 0.00 in0.0 mm 0.00 in0.0 mm 0.00 in0.0 mm
03:58 AM 63.5°F17.5°C 58.6°F14.8°C 84% 2.0 mph SE3.2 kmh SE 3.1 mph5.0 kmh 30.04 in1017.3 mb 0.00 in0.0 mm 0.00 in0.0 mm 0.00 in0.0 mm
04:00 AM 63.3°F17.4°C 58.5°F14.7°C 84% 2.5 mph SE4.0 kmh SE 3.4 mph5.5 kmh 30.04 in1017.3 mb 0.00 in0.0 mm 0.00 in0.0 mm 0.00 in0.0 mm
04:03 AM 63.3°F17.4°C 58.5°F14.7°C 84% 2.5 mph ESE4.0 kmh ESE 3.1 mph5.0 kmh 30.04 in1017.3 mb 0.00 in0.0 mm 0.00 in0.0 mm 0.00 in0.0 mm
04:05 AM 63.1°F17.3°C 58.3°F14.6°C 84% 2.5 mph ESE4.0 kmh ESE 3.6 mph5.8 kmh 30.04 in1017.3 mb 0.00 in0.0 mm 0.00 in0.0 mm 0.00 in0.0 mm
04:07 AM 63.3°F17.4°C 58.5°F14.7°C 84% 2.2 mph SE3.5 kmh SE 2.7 mph4.3 kmh 30.04 in1017.3 mb 0.00 in0.0 mm 0.00 in0.0 mm 0.00 in0.0 mm
04:09 AM 63.3°F17.4°C 58.5°F14.7°C 84% 1.8 mph ESE2.9 kmh ESE 2.5 mph4.0 kmh 30.04 in1017.3 mb 0.00 in0.0 mm 0.00 in0.0 mm 0.00 in0.0 mm
04:12 AM 63.3°F17.4°C 58.5°F14.7°C 84% 1.3 mph ESE2.1 kmh ESE 2.0 mph3.2 kmh 30.04 in1017.3 mb 0.00 in0.0 mm 0.00 in0.0 mm 0.00 in0.0 mm
04:14 AM 63.3°F17.4°C 58.5°F14.7°C 84% 1.6 mph SE2.6 kmh SE 3.1 mph5.0 kmh 30.04 in1017.3 mb 0.00 in0.0 mm 0.00 in0.0 mm 0.00 in0.0 mm
04:16 AM 63.3°F17.4°C 58.5°F14.7°C 84% 1.8 mph ESE2.9 kmh ESE 2.5 mph4.0 kmh 30.04 in1017.3 mb 0.00 in0.0 mm 0.00 in0.0 mm 0.00 in0.0 mm
04:18 AM 63.3°F17.4°C 58.5°F14.7°C 84% 1.6 mph SE2.6 kmh SE 2.5 mph4.0 kmh 30.05 in1017.6 mb 0.00 in0.0 mm 0.00 in0.0 mm 0.00 in0.0 mm
04:21 AM 63.3°F17.4°C 58.5°F14.7°C 84% 1.8 mph ESE2.9 kmh ESE 3.1 mph5.0 kmh 30.05 in1017.6 mb 0.00 in0.0 mm 0.00 in0.0 mm 0.00 in0.0 mm
04:23 AM 63.1°F17.3°C 58.3°F14.6°C 84% 1.3 mph SE2.1 kmh SE 2.9 mph4.7 kmh 30.05 in1017.6 mb 0.00 in0.0 mm 0.00 in0.0 mm 0.00 in0.0 mm
04:25 AM 63.1°F17.3°C 58.3°F14.6°C 84% 1.1 mph SSE1.8 kmh SSE 2.5 mph4.0 kmh 30.05 in1017.6 mb 0.00 in0.0 mm 0.00 in0.0 mm 0.00 in0.0 mm
04:27 AM 63.3°F17.4°C 58.5°F14.7°C 84% 0.9 mph SE1.4 kmh SE 1.8 mph2.9 kmh 30.05 in1017.6 mb 0.00 in0.0 mm 0.00 in0.0 mm 0.00 in0.0 mm
04:29 AM 63.3°F17.4°C 58.5°F14.7°C 84% 0.4 mph ESE0.6 kmh ESE 1.8 mph2.9 kmh 30.05 in1017.6 mb 0.00 in0.0 mm 0.00 in0.0 mm 0.00 in0.0 mm
04:31 AM 63.3°F17.4°C 58.5°F14.7°C 84% 0.2 mph ESE0.3 kmh ESE -- 30.05 in1017.6 mb 0.00 in0.0 mm 0.00 in0.0 mm 0.00 in0.0 mm
04:34 AM 63.3°F17.4°C 58.5°F14.7°C 84% 0.2 mph SE0.3 kmh SE -- 30.05 in1017.6 mb 0.00 in0.0 mm 0.00 in0.0 mm 0.00 in0.0 mm
04:36 AM 63.5°F17.5°C 58.6°F14.8°C 84% 0.2 mph E0.3 kmh E -- 30.04 in1017.3 mb 0.00 in0.0 mm 0.00 in0.0 mm 0.00 in0.0 mm
04:38 AM 63.3°F17.4°C 58.5°F14.7°C 84% 0.2 mph E0.3 kmh E -- 30.05 in1017.6 mb 0.00 in0.0 mm 0.00 in0.0 mm 0.00 in0.0 mm
04:40 AM 63.1°F17.3°C 58.3°F14.6°C 84% 0.2 mph E0.3 kmh E -- 30.05 in1017.6 mb 0.00 in0.0 mm 0.00 in0.0 mm 0.00 in0.0 mm
04:43 AM 63.1°F17.3°C 58.3°F14.6°C 84% 0.2 mph NNE0.3 kmh NNE -- 30.06 in1017.9 mb 0.00 in0.0 mm 0.00 in0.0 mm 0.00 in0.0 mm
04:45 AM 63.1°F17.3°C 58.3°F14.6°C 84% 0.2 mph NNE0.3 kmh NNE -- 30.05 in1017.6 mb 0.00 in0.0 mm 0.00 in0.0 mm 0.00 in0.0 mm
04:47 AM 63.0°F17.2°C 58.1°F14.5°C 84% 0.2 mph NE0.3 kmh NE -- 30.05 in1017.6 mb 0.00 in0.0 mm 0.00 in0.0 mm 0.00 in0.0 mm
04:49 AM 63.0°F17.2°C 58.1°F14.5°C 84% 0.2 mph E0.3 kmh E -- 30.05 in1017.6 mb 0.00 in0.0 mm 0.00 in0.0 mm 0.00 in0.0 mm
04:52 AM 63.0°F17.2°C 58.1°F14.5°C 84% 0.2 mph SE0.3 kmh SE -- 30.05 in1017.6 mb 0.00 in0.0 mm 0.00 in0.0 mm 0.00 in0.0 mm
04:54 AM 63.1°F17.3°C 58.3°F14.6°C 84% 0.2 mph ESE0.3 kmh ESE -- 30.05 in1017.6 mb 0.00 in0.0 mm 0.00 in0.0 mm 0.00 in0.0 mm
04:56 AM 63.3°F17.4°C 58.5°F14.7°C 84% 0.2 mph SE0.3 kmh SE -- 30.05 in1017.6 mb 0.00 in0.0 mm 0.00 in0.0 mm 0.00 in0.0 mm
04:58 AM 63.3°F17.4°C 58.5°F14.7°C 84% 0.4 mph ESE0.6 kmh ESE 1.6 mph2.6 kmh 30.05 in1017.6 mb 0.00 in0.0 mm 0.00 in0.0 mm 0.00 in0.0 mm
05:00 AM 63.3°F17.4°C 58.5°F14.7°C 84% 0.7 mph ESE1.1 kmh ESE 2.5 mph4.0 kmh 30.05 in1017.6 mb 0.00 in0.0 mm 0.00 in0.0 mm 0.00 in0.0 mm
05:03 AM 63.3°F17.4°C 58.5°F14.7°C 84% 1.1 mph SE1.8 kmh SE 2.7 mph4.3 kmh 30.05 in1017.6 mb 0.00 in0.0 mm 0.00 in0.0 mm 0.00 in0.0 mm
05:05 AM 63.5°F17.5°C 58.6°F14.8°C 84% 0.7 mph SE1.1 kmh SE 0.9 mph1.4 kmh 30.05 in1017.6 mb 0.00 in0.0 mm 0.00 in0.0 mm 0.00 in0.0 mm
05:07 AM 63.5°F17.5°C 58.6°F14.8°C 84% 0.7 mph ESE1.1 kmh ESE 2.0 mph3.2 kmh 30.05 in1017.6 mb 0.00 in0.0 mm 0.00 in0.0 mm 0.00 in0.0 mm
05:09 AM 63.7°F17.6°C 58.8°F14.9°C 84% 0.9 mph SE1.4 kmh SE 2.5 mph4.0 kmh 30.05 in1017.6 mb 0.00 in0.0 mm 0.00 in0.0 mm 0.00 in0.0 mm
05:12 AM 63.7°F17.6°C 58.8°F14.9°C 84% 1.1 mph ESE1.8 kmh ESE 2.2 mph3.5 kmh 30.05 in1017.6 mb 0.00 in0.0 mm 0.00 in0.0 mm 0.00 in0.0 mm
05:14 AM 64.0°F17.8°C 59.2°F15.1°C 84% 1.8 mph ESE2.9 kmh ESE 4.3 mph6.9 kmh 30.05 in1017.6 mb 0.00 in0.0 mm 0.00 in0.0 mm 0.00 in0.0 mm
05:16 AM 64.2°F17.9°C 59.5°F15.3°C 85% 2.7 mph ESE4.3 kmh ESE 4.7 mph7.6 kmh 30.05 in1017.6 mb 0.00 in0.0 mm 0.00 in0.0 mm 0.00 in0.0 mm
05:18 AM 64.8°F18.2°C 60.1°F15.6°C 85% 3.1 mph ESE5.0 kmh ESE 4.7 mph7.6 kmh 30.05 in1017.6 mb 0.00 in0.0 mm 0.00 in0.0 mm 0.00 in0.0 mm
05:20 AM 64.9°F18.3°C 59.9°F15.5°C 84% 3.1 mph SE5.0 kmh SE 3.8 mph6.1 kmh 30.05 in1017.6 mb 0.00 in0.0 mm 0.00 in0.0 mm 0.00 in0.0 mm
05:23 AM 65.1°F18.4°C 60.1°F15.6°C 84% 3.1 mph ESE5.0 kmh ESE 4.9 mph7.9 kmh 30.05 in1017.6 mb 0.00 in0.0 mm 0.00 in0.0 mm 0.00 in0.0 mm
05:25 AM 65.3°F18.5°C 60.3°F15.7°C 84% 3.4 mph ESE5.5 kmh ESE 5.8 mph9.3 kmh 30.05 in1017.6 mb 0.00 in0.0 mm 0.00 in0.0 mm 0.00 in0.0 mm
05:27 AM 65.5°F18.6°C 60.4°F15.8°C 84% 3.1 mph SE5.0 kmh SE 5.1 mph8.2 kmh 30.05 in1017.6 mb 0.00 in0.0 mm 0.00 in0.0 mm 0.00 in0.0 mm
05:29 AM 65.5°F18.6°C 60.3°F15.7°C 83% 2.0 mph SE3.2 kmh SE 2.5 mph4.0 kmh 30.05 in1017.6 mb 0.00 in0.0 mm 0.00 in0.0 mm 0.00 in0.0 mm
05:31 AM 65.5°F18.6°C 60.3°F15.7°C 83% 1.3 mph ESE2.1 kmh ESE 3.6 mph5.8 kmh 30.05 in1017.6 mb 0.00 in0.0 mm 0.00 in0.0 mm 0.00 in0.0 mm
05:33 AM 65.5°F18.6°C 60.3°F15.7°C 83% 0.9 mph SE1.4 kmh SE 0.9 mph1.4 kmh 30.05 in1017.6 mb 0.00 in0.0 mm 0.00 in0.0 mm 0.00 in0.0 mm
05:36 AM 65.5°F18.6°C 60.3°F15.7°C 83% 0.7 mph E1.1 kmh E 1.3 mph2.1 kmh 30.05 in1017.6 mb 0.00 in0.0 mm 0.00 in0.0 mm 0.00 in0.0 mm
05:38 AM 65.3°F18.5°C 59.7°F15.4°C 82% 0.4 mph ENE0.6 kmh ENE -- 30.05 in1017.6 mb 0.00 in0.0 mm 0.00 in0.0 mm 0.00 in0.0 mm
05:40 AM 65.1°F18.4°C 59.5°F15.3°C 82% 0.2 mph E0.3 kmh E -- 30.06 in1017.9 mb 0.00 in0.0 mm 0.00 in0.0 mm 0.00 in0.0 mm
05:42 AM 64.9°F18.3°C 59.4°F15.2°C 82% 0.2 mph E0.3 kmh E -- 30.06 in1017.9 mb 0.00 in0.0 mm 0.00 in0.0 mm 0.00 in0.0 mm
05:44 AM 64.6°F18.1°C 59.0°F15.0°C 82% 0.2 mph ENE0.3 kmh ENE -- 30.06 in1017.9 mb 0.00 in0.0 mm 0.00 in0.0 mm 0.00 in0.0 mm
05:47 AM 64.2°F17.9°C 58.6°F14.8°C 82% 0.2 mph E0.3 kmh E -- 30.06 in1017.9 mb 0.00 in0.0 mm 0.00 in0.0 mm 0.00 in0.0 mm
05:49 AM 64.2°F17.9°C 58.6°F14.8°C 82% 0.2 mph ESE0.3 kmh ESE -- 30.06 in1017.9 mb 0.00 in0.0 mm 0.00 in0.0 mm 0.00 in0.0 mm
05:51 AM 64.2°F17.9°C 58.6°F14.8°C 82% 0.2 mph E0.3 kmh E -- 30.06 in1017.9 mb 0.00 in0.0 mm 0.00 in0.0 mm 0.00 in0.0 mm
05:53 AM 64.2°F17.9°C 58.6°F14.8°C 82% 0.2 mph E0.3 kmh E -- 30.06 in1017.9 mb 0.00 in0.0 mm 0.00 in0.0 mm 0.00 in0.0 mm
05:55 AM 64.0°F17.8°C 58.5°F14.7°C 82% 0.2 mph 0.3 kmh -- 30.06 in1017.9 mb 0.00 in0.0 mm 0.00 in0.0 mm 0.00 in0.0 mm
05:58 AM 63.9°F17.7°C 58.3°F14.6°C 82% 0.2 mph NNW0.3 kmh NNW -- 30.06 in1017.9 mb 0.00 in0.0 mm 0.00 in0.0 mm 0.00 in0.0 mm
06:00 AM 63.7°F17.6°C 58.1°F14.5°C 82% 0.2 mph 0.3 kmh -- 30.06 in1017.9 mb 0.00 in0.0 mm 0.00 in0.0 mm 0.00 in0.0 mm
06:02 AM 63.3°F17.4°C 57.7°F14.3°C 82% 0.2 mph 0.3 kmh -- 30.06 in1017.9 mb 0.00 in0.0 mm 0.00 in0.0 mm 0.00 in0.0 mm
06:04 AM 63.1°F17.3°C 57.6°F14.2°C 82% 0.2 mph 0.3 kmh -- 30.06 in1017.9 mb 0.00 in0.0 mm 0.00 in0.0 mm 0.00 in0.0 mm
06:07 AM 63.1°F17.3°C 57.6°F14.2°C 82% 0.2 mph ESE0.3 kmh ESE -- 30.06 in1017.9 mb 0.00 in0.0 mm 0.00 in0.0 mm 0.00 in0.0 mm
06:09 AM 63.1°F17.3°C 57.6°F14.2°C 82% 0.2 mph SE0.3 kmh SE -- 30.06 in1017.9 mb 0.00 in0.0 mm 0.00 in0.0 mm 0.00 in0.0 mm
06:11 AM 63.3°F17.4°C 57.7°F14.3°C 82% 0.4 mph ESE0.6 kmh ESE 2.7 mph4.3 kmh 30.06 in1017.9 mb 0.00 in0.0 mm 0.00 in0.0 mm 0.00 in0.0 mm
06:13 AM 63.7°F17.6°C 58.1°F14.5°C 82% 0.9 mph SE1.4 kmh SE 2.7 mph4.3 kmh 30.06 in1017.9 mb 0.00 in0.0 mm 0.00 in0.0 mm 0.00 in0.0 mm
06:16 AM 64.0°F17.8°C 58.5°F14.7°C 82% 0.7 mph ESE1.1 kmh ESE 2.0 mph3.2 kmh 30.06 in1017.9 mb 0.00 in0.0 mm 0.00 in0.0 mm 0.00 in0.0 mm
06:18 AM 64.2°F17.9°C 58.6°F14.8°C 82% 1.3 mph ESE2.1 kmh ESE 3.4 mph5.5 kmh 30.06 in1017.9 mb 0.00 in0.0 mm 0.00 in0.0 mm 0.00 in0.0 mm
06:20 AM 64.2°F17.9°C 58.6°F14.8°C 82% 1.6 mph ESE2.6 kmh ESE 2.9 mph4.7 kmh 30.06 in1017.9 mb 0.00 in0.0 mm 0.00 in0.0 mm 0.00 in0.0 mm
06:22 AM 64.6°F18.1°C 59.0°F15.0°C 82% 1.3 mph SE2.1 kmh SE 2.2 mph3.5 kmh 30.06 in1017.9 mb 0.00 in0.0 mm 0.00 in0.0 mm 0.00 in0.0 mm
06:24 AM 64.6°F18.1°C 59.0°F15.0°C 82% 1.1 mph ESE1.8 kmh ESE 2.9 mph4.7 kmh 30.06 in1017.9 mb 0.00 in0.0 mm 0.00 in0.0 mm 0.00 in0.0 mm
06:26 AM 64.6°F18.1°C 59.0°F15.0°C 82% 1.1 mph E1.8 kmh E 3.1 mph5.0 kmh 30.06 in1017.9 mb 0.00 in0.0 mm 0.00 in0.0 mm 0.00 in0.0 mm
06:29 AM 64.9°F18.3°C 59.4°F15.2°C 82% 1.1 mph SE1.8 kmh SE 3.1 mph5.0 kmh 30.06 in1017.9 mb 0.00 in0.0 mm 0.00 in0.0 mm 0.00 in0.0 mm
06:31 AM 65.1°F18.4°C 59.5°F15.3°C 82% 1.6 mph ENE2.6 kmh ENE 4.7 mph7.6 kmh 30.06 in1017.9 mb 0.00 in0.0 mm 0.00 in0.0 mm 0.00 in0.0 mm
06:33 AM 65.3°F18.5°C 59.7°F15.4°C 82% 1.1 mph ESE1.8 kmh ESE 1.6 mph2.6 kmh 30.06 in1017.9 mb 0.00 in0.0 mm 0.00 in0.0 mm 0.00 in0.0 mm
06:35 AM 65.5°F18.6°C 59.9°F15.5°C 82% 1.8 mph E2.9 kmh E 3.8 mph6.1 kmh 30.06 in1017.9 mb 0.00 in0.0 mm 0.00 in0.0 mm 0.00 in0.0 mm
06:37 AM 65.8°F18.8°C 60.3°F15.7°C 82% 1.3 mph ESE2.1 kmh ESE 2.2 mph3.5 kmh 30.06 in1017.9 mb 0.00 in0.0 mm 0.00 in0.0 mm 0.00 in0.0 mm
06:40 AM 66.0°F18.9°C 60.4°F15.8°C 82% 1.1 mph E1.8 kmh E 2.2 mph3.5 kmh 30.06 in1017.9 mb 0.00 in0.0 mm 0.00 in0.0 mm 0.00 in0.0 mm
06:42 AM 66.0°F18.9°C 60.4°F15.8°C 82% 0.7 mph E1.1 kmh E 1.6 mph2.6 kmh 30.06 in1017.9 mb 0.00 in0.0 mm 0.00 in0.0 mm 0.00 in0.0 mm
06:44 AM 66.2°F19.0°C 60.6°F15.9°C 82% 0.4 mph SSE0.6 kmh SSE 2.0 mph3.2 kmh 30.06 in1017.9 mb 0.00 in0.0 mm 0.00 in0.0 mm 0.00 in0.0 mm
06:46 AM 66.4°F19.1°C 60.8°F16.0°C 82% 0.2 mph E0.3 kmh E -- 30.06 in1017.9 mb 0.00 in0.0 mm 0.00 in0.0 mm 0.00 in0.0 mm
06:49 AM 66.7°F19.3°C 61.0°F16.1°C 82% 0.2 mph E0.3 kmh E 1.6 mph2.6 kmh 30.06 in1017.9 mb 0.00 in0.0 mm 0.00 in0.0 mm 0.00 in0.0 mm
06:51 AM 66.9°F19.4°C 61.0°F16.1°C 81% 0.2 mph ENE0.3 kmh ENE -- 30.06 in1017.9 mb 0.00 in0.0 mm 0.00 in0.0 mm 0.00 in0.0 mm
06:53 AM 66.9°F19.4°C 61.0°F16.1°C 81% 0.2 mph E0.3 kmh E 0.9 mph1.4 kmh 30.06 in1017.9 mb 0.00 in0.0 mm 0.00 in0.0 mm 0.00 in0.0 mm
06:55 AM 67.3°F19.6°C 61.2°F16.2°C 81% 0.4 mph NE0.6 kmh NE 3.6 mph5.8 kmh 30.06 in1017.9 mb 0.00 in0.0 mm 0.00 in0.0 mm 0.00 in0.0 mm
06:57 AM 67.3°F19.6°C 61.2°F16.2°C 81% 0.2 mph NNE0.3 kmh NNE -- 30.07 in1018.3 mb 0.00 in0.0 mm 0.00 in0.0 mm 0.00 in0.0 mm
06:59 AM 67.6°F19.8°C 61.5°F16.4°C 81% 0.2 mph NE0.3 kmh NE -- 30.06 in1017.9 mb 0.00 in0.0 mm 0.00 in0.0 mm 0.00 in0.0 mm
07:02 AM 67.8°F19.9°C 61.7°F16.5°C 81% 0.2 mph SE0.3 kmh SE -- 30.07 in1018.3 mb 0.00 in0.0 mm 0.00 in0.0 mm 0.00 in0.0 mm
07:04 AM 68.2°F20.1°C 62.1°F16.7°C 81% 0.2 mph NE0.3 kmh NE -- 30.07 in1018.3 mb 0.00 in0.0 mm 0.00 in0.0 mm 0.00 in0.0 mm
07:06 AM 68.2°F20.1°C 62.1°F16.7°C 81% 0.2 mph ESE0.3 kmh ESE -- 30.07 in1018.3 mb 0.00 in0.0 mm 0.00 in0.0 mm 0.00 in0.0 mm
07:08 AM 68.5°F20.3°C 62.1°F16.7°C 80% 1.1 mph ENE1.8 kmh ENE 3.8 mph6.1 kmh 30.07 in1018.3 mb 0.00 in0.0 mm 0.00 in0.0 mm 0.00 in0.0 mm
07:11 AM 68.5°F20.3°C 62.1°F16.7°C 80% 1.1 mph E1.8 kmh E 4.0 mph6.4 kmh 30.07 in1018.3 mb 0.00 in0.0 mm 0.00 in0.0 mm 0.00 in0.0 mm
07:13 AM 68.5°F20.3°C 62.1°F16.7°C 80% 1.8 mph E2.9 kmh E 4.5 mph7.2 kmh 30.06 in1017.9 mb 0.00 in0.0 mm 0.00 in0.0 mm 0.00 in0.0 mm
07:15 AM 68.5°F20.3°C 61.7°F16.5°C 79% 1.3 mph ESE2.1 kmh ESE 4.3 mph6.9 kmh 30.07 in1018.3 mb 0.00 in0.0 mm 0.00 in0.0 mm 0.00 in0.0 mm
07:17 AM 68.7°F20.4°C 61.9°F16.6°C 79% 2.0 mph E3.2 kmh E 6.5 mph10.5 kmh 30.07 in1018.3 mb 0.00 in0.0 mm 0.00 in0.0 mm 0.00 in0.0 mm
07:20 AM 68.7°F20.4°C 61.9°F16.6°C 79% 2.2 mph ENE3.5 kmh ENE 4.5 mph7.2 kmh 30.07 in1018.3 mb 0.00 in0.0 mm 0.00 in0.0 mm 0.00 in0.0 mm
07:22 AM 68.7°F20.4°C 61.9°F16.6°C 79% 2.2 mph E3.5 kmh E 6.5 mph10.5 kmh 30.07 in1018.3 mb 0.00 in0.0 mm 0.00 in0.0 mm 0.00 in0.0 mm
07:24 AM 68.9°F20.5°C 61.7°F16.5°C 78% 2.2 mph ENE3.5 kmh ENE 3.8 mph6.1 kmh 30.07 in1018.3 mb 0.00 in0.0 mm 0.00 in0.0 mm 0.00 in0.0 mm
07:26 AM 69.1°F20.6°C 61.9°F16.6°C 78% 1.8 mph E2.9 kmh E 2.0 mph3.2 kmh 30.07 in1018.3 mb 0.00 in0.0 mm 0.00 in0.0 mm 0.00 in0.0 mm
07:28 AM 69.1°F20.6°C 61.9°F16.6°C 78% 1.8 mph E2.9 kmh E 5.1 mph8.2 kmh 30.07 in1018.3 mb 0.00 in0.0 mm 0.00 in0.0 mm 0.00 in0.0 mm
07:30 AM 69.4°F20.8°C 62.2°F16.8°C 78% 2.0 mph E3.2 kmh E 3.1 mph5.0 kmh 30.07 in1018.3 mb 0.00 in0.0 mm 0.00 in0.0 mm 0.00 in0.0 mm
07:33 AM 69.6°F20.9°C 62.1°F16.7°C 77% 1.1 mph NNE1.8 kmh NNE 1.8 mph2.9 kmh 30.07 in1018.3 mb 0.00 in0.0 mm 0.00 in0.0 mm 0.00 in0.0 mm
07:35 AM 69.4°F20.8°C 61.9°F16.6°C 77% 0.7 mph E1.1 kmh E -- 30.07 in1018.3 mb 0.00 in0.0 mm 0.00 in0.0 mm 0.00 in0.0 mm
07:37 AM 69.3°F20.7°C 61.7°F16.5°C 77% 0.4 mph NNE0.6 kmh NNE -- 30.07 in1018.3 mb 0.00 in0.0 mm 0.00 in0.0 mm 0.00 in0.0 mm
07:39 AM 69.1°F20.6°C 61.2°F16.2°C 76% 0.4 mph 0.6 kmh 1.1 mph1.8 kmh 30.08 in1018.6 mb 0.00 in0.0 mm 0.00 in0.0 mm 0.00 in0.0 mm
07:41 AM 68.9°F20.5°C 61.0°F16.1°C 76% 0.2 mph SW0.3 kmh SW -- 30.07 in1018.3 mb 0.00 in0.0 mm 0.00 in0.0 mm 0.00 in0.0 mm
07:44 AM 69.1°F20.6°C 61.2°F16.2°C 76% 0.2 mph 0.3 kmh -- 30.07 in1018.3 mb 0.00 in0.0 mm 0.00 in0.0 mm 0.00 in0.0 mm
07:46 AM 69.1°F20.6°C 61.2°F16.2°C 76% 0.2 mph WNW0.3 kmh WNW 1.1 mph1.8 kmh 30.08 in1018.6 mb 0.00 in0.0 mm 0.00 in0.0 mm 0.00 in0.0 mm
07:48 AM 69.1°F20.6°C 60.8°F16.0°C 75% 0.2 mph NW0.3 kmh NW -- 30.08 in1018.6 mb 0.00 in0.0 mm 0.00 in0.0 mm 0.00 in0.0 mm
07:50 AM 69.1°F20.6°C 60.8°F16.0°C 75% 0.2 mph ESE0.3 kmh ESE -- 30.07 in1018.3 mb 0.00 in0.0 mm 0.00 in0.0 mm 0.00 in0.0 mm
07:53 AM 69.4°F20.8°C 61.2°F16.2°C 75% 0.2 mph SW0.3 kmh SW -- 30.08 in1018.6 mb 0.00 in0.0 mm 0.00 in0.0 mm 0.00 in0.0 mm
07:55 AM 69.6°F20.9°C 61.0°F16.1°C 74% 0.2 mph 0.3 kmh -- 30.08 in1018.6 mb 0.00 in0.0 mm 0.00 in0.0 mm 0.00 in0.0 mm
07:57 AM 69.4°F20.8°C 60.8°F16.0°C 74% 0.2 mph W0.3 kmh W -- 30.08 in1018.6 mb 0.00 in0.0 mm 0.00 in0.0 mm 0.00 in0.0 mm
07:59 AM 69.4°F20.8°C 60.4°F15.8°C 73% 0.4 mph NW0.6 kmh NW 2.0 mph3.2 kmh 30.08 in1018.6 mb 0.00 in0.0 mm 0.00 in0.0 mm 0.00 in0.0 mm
08:02 AM 69.4°F20.8°C 60.4°F15.8°C 73% 0.7 mph NNW1.1 kmh NNW 2.5 mph4.0 kmh 30.08 in1018.6 mb 0.00 in0.0 mm 0.00 in0.0 mm 0.00 in0.0 mm
08:04 AM 69.3°F20.7°C 60.3°F15.7°C 73% 0.9 mph NNW1.4 kmh NNW 4.0 mph6.4 kmh 30.08 in1018.6 mb 0.00 in0.0 mm 0.00 in0.0 mm 0.00 in0.0 mm
08:06 AM 69.1°F20.6°C 59.7°F15.4°C 72% 0.7 mph 1.1 kmh 1.3 mph2.1 kmh 30.08 in1018.6 mb 0.00 in0.0 mm 0.00 in0.0 mm 0.00 in0.0 mm
08:08 AM 69.4°F20.8°C 60.1°F15.6°C 72% 0.4 mph SW0.6 kmh SW -- 30.08 in1018.6 mb 0.00 in0.0 mm 0.00 in0.0 mm 0.00 in0.0 mm
08:11 AM 69.6°F20.9°C 60.3°F15.7°C 72% 0.2 mph E0.3 kmh E 1.1 mph1.8 kmh 30.08 in1018.6 mb 0.00 in0.0 mm 0.00 in0.0 mm 0.00 in0.0 mm
08:13 AM 69.8°F21.0°C 60.4°F15.8°C 72% 0.2 mph SW0.3 kmh SW -- 30.08 in1018.6 mb 0.00 in0.0 mm 0.00 in0.0 mm 0.00 in0.0 mm
08:15 AM 70.0°F21.1°C 60.1°F15.6°C 71% 0.4 mph NE0.6 kmh NE 3.4 mph5.5 kmh 30.08 in1018.6 mb 0.00 in0.0 mm 0.00 in0.0 mm 0.00 in0.0 mm
08:17 AM 70.0°F21.1°C 60.1°F15.6°C 71% 0.4 mph NE0.6 kmh NE 2.0 mph3.2 kmh 30.08 in1018.6 mb 0.00 in0.0 mm 0.00 in0.0 mm 0.00 in0.0 mm
08:19 AM 70.3°F21.3°C 60.1°F15.6°C 70% 0.7 mph E1.1 kmh E 2.5 mph4.0 kmh 30.08 in1018.6 mb 0.00 in0.0 mm 0.00 in0.0 mm 0.00 in0.0 mm
08:21 AM 70.5°F21.4°C 60.3°F15.7°C 70% 0.4 mph W0.6 kmh W -- 30.08 in1018.6 mb 0.00 in0.0 mm 0.00 in0.0 mm 0.00 in0.0 mm
08:24 AM 70.3°F21.3°C 59.4°F15.2°C 68% 1.1 mph NW1.8 kmh NW 5.1 mph8.2 kmh 30.08 in1018.6 mb 0.00 in0.0 mm 0.00 in0.0 mm 0.00 in0.0 mm
08:26 AM 70.5°F21.4°C 59.4°F15.2°C 68% 0.7 mph NNW1.1 kmh NNW -- 30.08 in1018.6 mb 0.00 in0.0 mm 0.00 in0.0 mm 0.00 in0.0 mm
08:28 AM 70.5°F21.4°C 59.4°F15.2°C 68% 1.1 mph SW1.8 kmh SW 4.0 mph6.4 kmh 30.08 in1018.6 mb 0.00 in0.0 mm 0.00 in0.0 mm 0.00 in0.0 mm
08:30 AM 70.7°F21.5°C 59.2°F15.1°C 67% 1.1 mph SSW1.8 kmh SSW 3.1 mph5.0 kmh 30.08 in1018.6 mb 0.00 in0.0 mm 0.00 in0.0 mm 0.00 in0.0 mm
08:32 AM 70.7°F21.5°C 59.2°F15.1°C 67% 0.9 mph SW1.4 kmh SW 2.5 mph4.0 kmh 30.08 in1018.6 mb 0.00 in0.0 mm 0.00 in0.0 mm 0.00 in0.0 mm
08:34 AM 70.7°F21.5°C 59.2°F15.1°C 67% 0.4 mph 0.6 kmh -- 30.08 in1018.6 mb 0.00 in0.0 mm 0.00 in0.0 mm 0.00 in0.0 mm
08:37 AM 70.9°F21.6°C 59.4°F15.2°C 67% 0.2 mph NW0.3 kmh NW -- 30.09 in1019.0 mb 0.00 in0.0 mm 0.00 in0.0 mm 0.00 in0.0 mm
08:39 AM 71.2°F21.8°C 59.7°F15.4°C 67% 0.2 mph W0.3 kmh W -- 30.08 in1018.6 mb 0.00 in0.0 mm 0.00 in0.0 mm 0.00 in0.0 mm
08:41 AM 71.2°F21.8°C 59.7°F15.4°C 67% 0.7 mph NNW1.1 kmh NNW 2.5 mph4.0 kmh 30.09 in1019.0 mb 0.00 in0.0 mm 0.00 in0.0 mm 0.00 in0.0 mm
08:43 AM 70.9°F21.6°C 59.0°F15.0°C 66% 0.9 mph NNE1.4 kmh NNE 2.5 mph4.0 kmh 30.09 in1019.0 mb 0.00 in0.0 mm 0.00 in0.0 mm 0.00 in0.0 mm
08:45 AM 70.7°F21.5°C 58.8°F14.9°C 66% 1.1 mph W1.8 kmh W 2.9 mph4.7 kmh 30.09 in1019.0 mb 0.00 in0.0 mm 0.00 in0.0 mm 0.00 in0.0 mm
08:48 AM 70.3°F21.3°C 58.5°F14.7°C 66% 1.3 mph NW2.1 kmh NW 4.9 mph7.9 kmh 30.09 in1019.0 mb 0.00 in0.0 mm 0.00 in0.0 mm 0.00 in0.0 mm
08:50 AM 70.5°F21.4°C 59.0°F15.0°C 67% 0.9 mph NNW1.4 kmh NNW 2.0 mph3.2 kmh 30.09 in1019.0 mb 0.00 in0.0 mm 0.00 in0.0 mm 0.00 in0.0 mm
08:52 AM 70.7°F21.5°C 59.2°F15.1°C 67% 0.7 mph NNE1.1 kmh NNE 2.5 mph4.0 kmh 30.09 in1019.0 mb 0.00 in0.0 mm 0.00 in0.0 mm 0.00 in0.0 mm
08:54 AM 70.9°F21.6°C 59.0°F15.0°C 66% 1.6 mph 2.6 kmh 5.6 mph9.0 kmh 30.09 in1019.0 mb 0.00 in0.0 mm 0.00 in0.0 mm 0.00 in0.0 mm
08:57 AM 71.2°F21.8°C 58.5°F14.7°C 64% 1.3 mph NW2.1 kmh NW 2.0 mph3.2 kmh 30.09 in1019.0 mb 0.00 in0.0 mm 0.00 in0.0 mm 0.00 in0.0 mm
08:59 AM 71.4°F21.9°C 58.6°F14.8°C 64% 1.8 mph WNW2.9 kmh WNW 3.6 mph5.8 kmh 30.09 in1019.0 mb 0.00 in0.0 mm 0.00 in0.0 mm 0.00 in0.0 mm
09:01 AM 71.4°F21.9°C 58.6°F14.8°C 64% 0.9 mph 1.4 kmh 2.0 mph3.2 kmh 30.09 in1019.0 mb 0.00 in0.0 mm 0.00 in0.0 mm 0.00 in0.0 mm
09:03 AM 71.8°F22.1°C 59.0°F15.0°C 64% 0.9 mph NNW1.4 kmh NNW 2.5 mph4.0 kmh 30.09 in1019.0 mb 0.00 in0.0 mm 0.00 in0.0 mm 0.00 in0.0 mm
09:05 AM 72.1°F22.3°C 59.4°F15.2°C 64% 0.4 mph NNW0.6 kmh NNW -- 30.09 in1019.0 mb 0.00 in0.0 mm 0.00 in0.0 mm 0.00 in0.0 mm
09:07 AM 72.3°F22.4°C 59.0°F15.0°C 63% 0.4 mph 0.6 kmh 2.0 mph3.2 kmh 30.09 in1019.0 mb 0.00 in0.0 mm 0.00 in0.0 mm 0.00 in0.0 mm
09:10 AM 72.5°F22.5°C 58.8°F14.9°C 62% 0.9 mph NNE1.4 kmh NNE 3.6 mph5.8 kmh 30.08 in1018.6 mb 0.00 in0.0 mm 0.00 in0.0 mm 0.00 in0.0 mm
09:12 AM 72.7°F22.6°C 58.8°F14.9°C 62% 0.7 mph WNW1.1 kmh WNW 1.1 mph1.8 kmh 30.09 in1019.0 mb 0.00 in0.0 mm 0.00 in0.0 mm 0.00 in0.0 mm
09:14 AM 72.9°F22.7°C 59.0°F15.0°C 62% 0.7 mph SSE1.1 kmh SSE 2.5 mph4.0 kmh 30.08 in1018.6 mb 0.00 in0.0 mm 0.00 in0.0 mm 0.00 in0.0 mm
09:16 AM 72.7°F22.6°C 58.8°F14.9°C 62% 1.3 mph NNE2.1 kmh NNE 4.9 mph7.9 kmh 30.09 in1019.0 mb 0.00 in0.0 mm 0.00 in0.0 mm 0.00 in0.0 mm
09:19 AM 72.7°F22.6°C 58.8°F14.9°C 62% 1.3 mph WSW2.1 kmh WSW 3.6 mph5.8 kmh 30.09 in1019.0 mb 0.00 in0.0 mm 0.00 in0.0 mm 0.00 in0.0 mm
09:21 AM 72.7°F22.6°C 58.8°F14.9°C 62% 1.3 mph 2.1 kmh 4.7 mph7.6 kmh 30.09 in1019.0 mb 0.00 in0.0 mm 0.00 in0.0 mm 0.00 in0.0 mm
09:23 AM 73.0°F22.8°C 59.2°F15.1°C 62% 0.9 mph SW1.4 kmh SW 1.8 mph2.9 kmh 30.09 in1019.0 mb 0.00 in0.0 mm 0.00 in0.0 mm 0.00 in0.0 mm
09:25 AM 73.2°F22.9°C 59.4°F15.2°C 62% 1.1 mph 1.8 kmh 5.1 mph8.2 kmh 30.09 in1019.0 mb 0.00 in0.0 mm 0.00 in0.0 mm 0.00 in0.0 mm
09:28 AM 73.6°F23.1°C 59.4°F15.2°C 61% 1.1 mph WNW1.8 kmh WNW 3.8 mph6.1 kmh 30.09 in1019.0 mb 0.00 in0.0 mm 0.00 in0.0 mm 0.00 in0.0 mm
09:30 AM 73.6°F23.1°C 59.4°F15.2°C 61% 0.9 mph W1.4 kmh W 3.4 mph5.5 kmh 30.09 in1019.0 mb 0.00 in0.0 mm 0.00 in0.0 mm 0.00 in0.0 mm
09:32 AM 73.8°F23.2°C 59.0°F15.0°C 60% 1.3 mph SW2.1 kmh SW 4.3 mph6.9 kmh 30.08 in1018.6 mb 0.00 in0.0 mm 0.00 in0.0 mm 0.00 in0.0 mm
09:34 AM 73.8°F23.2°C 58.5°F14.7°C 59% 1.1 mph SSW1.8 kmh SSW 1.8 mph2.9 kmh 30.09 in1019.0 mb 0.00 in0.0 mm 0.00 in0.0 mm 0.00 in0.0 mm
09:36 AM 73.9°F23.3°C 58.3°F14.6°C 58% 1.6 mph 2.6 kmh 7.6 mph12.2 kmh 30.08 in1018.6 mb 0.00 in0.0 mm 0.00 in0.0 mm 0.00 in0.0 mm
09:39 AM 74.1°F23.4°C 58.5°F14.7°C 58% 1.1 mph ESE1.8 kmh ESE 1.1 mph1.8 kmh 30.08 in1018.6 mb 0.00 in0.0 mm 0.00 in0.0 mm 0.00 in0.0 mm
09:41 AM 74.8°F23.8°C 58.6°F14.8°C 57% 2.7 mph ENE4.3 kmh ENE 10.1 mph16.3 kmh 30.08 in1018.6 mb 0.00 in0.0 mm 0.00 in0.0 mm 0.00 in0.0 mm
09:43 AM 75.0°F23.9°C 57.2°F14.0°C 54% 3.6 mph NNE5.8 kmh NNE 7.4 mph11.9 kmh 30.08 in1018.6 mb 0.00 in0.0 mm 0.00 in0.0 mm 0.00 in0.0 mm
09:45 AM 75.4°F24.1°C 57.6°F14.2°C 54% 3.6 mph E5.8 kmh E 7.6 mph12.2 kmh 30.08 in1018.6 mb 0.00 in0.0 mm 0.00 in0.0 mm 0.00 in0.0 mm
09:48 AM 75.4°F24.1°C 57.0°F13.9°C 53% 3.4 mph NNE5.5 kmh NNE 6.0 mph9.7 kmh 30.08 in1018.6 mb 0.00 in0.0 mm 0.00 in0.0 mm 0.00 in0.0 mm
09:50 AM 75.0°F23.9°C 57.2°F14.0°C 54% 2.7 mph ESE4.3 kmh ESE 5.8 mph9.3 kmh 30.08 in1018.6 mb 0.00 in0.0 mm 0.00 in0.0 mm 0.00 in0.0 mm
09:52 AM 75.4°F24.1°C 58.1°F14.5°C 55% 2.5 mph 4.0 kmh 5.6 mph9.0 kmh 30.08 in1018.6 mb 0.00 in0.0 mm 0.00 in0.0 mm 0.00 in0.0 mm
09:54 AM 75.6°F24.2°C 57.2°F14.0°C 53% 2.7 mph NNW4.3 kmh NNW 6.9 mph11.1 kmh 30.08 in1018.6 mb 0.00 in0.0 mm 0.00 in0.0 mm 0.00 in0.0 mm
09:56 AM 75.9°F24.4°C 57.6°F14.2°C 53% 2.7 mph NNW4.3 kmh NNW 5.4 mph8.7 kmh 30.08 in1018.6 mb 0.00 in0.0 mm 0.00 in0.0 mm 0.00 in0.0 mm
09:58 AM 75.9°F24.4°C 57.0°F13.9°C 52% 1.8 mph ENE2.9 kmh ENE 3.6 mph5.8 kmh 30.08 in1018.6 mb 0.00 in0.0 mm 0.00 in0.0 mm 0.00 in0.0 mm
10:01 AM 76.1°F24.5°C 57.7°F14.3°C 53% 1.3 mph ENE2.1 kmh ENE 4.0 mph6.4 kmh 30.08 in1018.6 mb 0.00 in0.0 mm 0.00 in0.0 mm 0.00 in0.0 mm
10:03 AM 76.8°F24.9°C 58.5°F14.7°C 53% 1.8 mph NNE2.9 kmh NNE 4.7 mph7.6 kmh 30.08 in1018.6 mb 0.00 in0.0 mm 0.00 in0.0 mm 0.00 in0.0 mm
10:05 AM 76.8°F24.9°C 57.4°F14.1°C 51% 1.6 mph SSW2.6 kmh SSW 3.1 mph5.0 kmh 30.08 in1018.6 mb 0.00 in0.0 mm 0.00 in0.0 mm 0.00 in0.0 mm
10:07 AM 77.0°F25.0°C 55.2°F12.9°C 47% 5.1 mph E8.2 kmh E 15.7 mph25.3 kmh 30.08 in1018.6 mb 0.00 in0.0 mm 0.00 in0.0 mm 0.00 in0.0 mm
10:09 AM 77.4°F25.2°C 55.6°F13.1°C 47% 5.4 mph NNW8.7 kmh NNW 11.6 mph18.7 kmh 30.08 in1018.6 mb 0.00 in0.0 mm 0.00 in0.0 mm 0.00 in0.0 mm
10:12 AM 77.4°F25.2°C 55.6°F13.1°C 47% 4.5 mph NNW7.2 kmh NNW 6.0 mph9.7 kmh 30.08 in1018.6 mb 0.00 in0.0 mm 0.00 in0.0 mm 0.00 in0.0 mm
10:14 AM 77.2°F25.1°C 54.1°F12.3°C 45% 5.8 mph SE9.3 kmh SE 10.7 mph17.2 kmh 30.08 in1018.6 mb 0.00 in0.0 mm 0.00 in0.0 mm 0.00 in0.0 mm
10:16 AM 77.5°F25.3°C 54.0°F12.2°C 44% 6.3 mph NNE10.1 kmh NNE 11.9 mph19.2 kmh 30.08 in1018.6 mb 0.00 in0.0 mm 0.00 in0.0 mm 0.00 in0.0 mm
10:18 AM 77.5°F25.3°C 52.0°F11.1°C 41% 6.9 mph NNE11.1 kmh NNE 16.3 mph26.2 kmh 30.08 in1018.6 mb 0.00 in0.0 mm 0.00 in0.0 mm 0.00 in0.0 mm
10:21 AM 77.5°F25.3°C 52.0°F11.1°C 41% 6.0 mph ENE9.7 kmh ENE 8.3 mph13.4 kmh 30.08 in1018.6 mb 0.00 in0.0 mm 0.00 in0.0 mm 0.00 in0.0 mm
10:23 AM 77.5°F25.3°C 52.0°F11.1°C 41% 6.0 mph E9.7 kmh E 9.6 mph15.4 kmh 30.08 in1018.6 mb 0.00 in0.0 mm 0.00 in0.0 mm 0.00 in0.0 mm
10:25 AM 77.9°F25.5°C 52.3°F11.3°C 41% 5.6 mph E9.0 kmh E 8.9 mph14.3 kmh 30.08 in1018.6 mb 0.00 in0.0 mm 0.00 in0.0 mm 0.00 in0.0 mm
10:27 AM 78.1°F25.6°C 52.5°F11.4°C 41% 6.3 mph ENE10.1 kmh ENE 14.1 mph22.7 kmh 30.09 in1019.0 mb 0.00 in0.0 mm 0.00 in0.0 mm 0.00 in0.0 mm
10:29 AM 78.1°F25.6°C 51.8°F11.0°C 40% 8.5 mph ENE13.7 kmh ENE 14.5 mph23.3 kmh 30.08 in1018.6 mb 0.00 in0.0 mm 0.00 in0.0 mm 0.00 in0.0 mm
10:31 AM 78.1°F25.6°C 51.1°F10.6°C 39% 8.1 mph ENE13.0 kmh ENE 11.0 mph17.7 kmh 30.08 in1018.6 mb 0.00 in0.0 mm 0.00 in0.0 mm 0.00 in0.0 mm
10:33 AM 78.1°F25.6°C 49.6°F9.8°C 37% 8.3 mph 13.4 kmh 12.1 mph19.5 kmh 30.08 in1018.6 mb 0.00 in0.0 mm 0.00 in0.0 mm 0.00 in0.0 mm
10:35 AM 78.4°F25.8°C 50.0°F10.0°C 37% 6.5 mph 10.5 kmh 11.4 mph18.3 kmh 30.08 in1018.6 mb 0.00 in0.0 mm 0.00 in0.0 mm 0.00 in0.0 mm
10:37 AM 78.4°F25.8°C 50.7°F10.4°C 38% 4.9 mph NNE7.9 kmh NNE 5.6 mph9.0 kmh 30.08 in1018.6 mb 0.00 in0.0 mm 0.00 in0.0 mm 0.00 in0.0 mm
10:39 AM 78.8°F26.0°C 51.1°F10.6°C 38% 4.5 mph NE7.2 kmh NE 5.8 mph9.3 kmh 30.08 in1018.6 mb 0.00 in0.0 mm 0.00 in0.0 mm 0.00 in0.0 mm
10:42 AM 79.2°F26.2°C 50.7°F10.4°C 37% 4.9 mph NE7.9 kmh NE 9.2 mph14.8 kmh 30.08 in1018.6 mb 0.00 in0.0 mm 0.00 in0.0 mm 0.00 in0.0 mm
10:44 AM 79.3°F26.3°C 49.3°F9.6°C 35% 6.0 mph ENE9.7 kmh ENE 13.2 mph21.2 kmh 30.08 in1018.6 mb 0.00 in0.0 mm 0.00 in0.0 mm 0.00 in0.0 mm
10:46 AM 79.3°F26.3°C 48.6°F9.2°C 34% 5.4 mph NE8.7 kmh NE 8.9 mph14.3 kmh 30.08 in1018.6 mb 0.00 in0.0 mm 0.00 in0.0 mm 0.00 in0.0 mm
10:48 AM 79.0°F26.1°C 48.2°F9.0°C 34% 6.5 mph ENE10.5 kmh ENE 13.6 mph21.9 kmh 30.08 in1018.6 mb 0.00 in0.0 mm 0.00 in0.0 mm 0.00 in0.0 mm
10:51 AM 78.6°F25.9°C 48.7°F9.3°C 35% 6.9 mph NNE11.1 kmh NNE 10.7 mph17.2 kmh 30.08 in1018.6 mb 0.00 in0.0 mm 0.00 in0.0 mm 0.00 in0.0 mm
10:53 AM 78.8°F26.0°C 48.9°F9.4°C 35% 6.5 mph ENE10.5 kmh ENE 10.5 mph16.9 kmh 30.08 in1018.6 mb 0.00 in0.0 mm 0.00 in0.0 mm 0.00 in0.0 mm
10:55 AM 79.2°F26.2°C 49.1°F9.5°C 35% 5.8 mph SSW9.3 kmh SSW 8.5 mph13.7 kmh 30.08 in1018.6 mb 0.00 in0.0 mm 0.00 in0.0 mm 0.00 in0.0 mm
10:57 AM 79.0°F26.1°C 48.2°F9.0°C 34% 6.0 mph 9.7 kmh 14.1 mph22.7 kmh 30.08 in1018.6 mb 0.00 in0.0 mm 0.00 in0.0 mm 0.00 in0.0 mm
11:00 AM 79.0°F26.1°C 48.9°F9.4°C 35% 5.4 mph W8.7 kmh W 8.7 mph14.0 kmh 30.08 in1018.6 mb 0.00 in0.0 mm 0.00 in0.0 mm 0.00 in0.0 mm
11:02 AM 78.8°F26.0°C 48.9°F9.4°C 35% 7.2 mph NNW11.6 kmh NNW 17.0 mph27.4 kmh 30.07 in1018.3 mb 0.00 in0.0 mm 0.00 in0.0 mm 0.00 in0.0 mm
11:04 AM 79.0°F26.1°C 48.9°F9.4°C 35% 6.9 mph ENE11.1 kmh ENE 13.6 mph21.9 kmh 30.08 in1018.6 mb 0.00 in0.0 mm 0.00 in0.0 mm 0.00 in0.0 mm
11:07 AM 79.2°F26.2°C 49.1°F9.5°C 35% 6.7 mph E10.8 kmh E 10.3 mph16.6 kmh 30.08 in1018.6 mb 0.00 in0.0 mm 0.00 in0.0 mm 0.00 in0.0 mm
11:09 AM 79.3°F26.3°C 48.6°F9.2°C 34% 5.8 mph NE9.3 kmh NE 9.8 mph15.8 kmh 30.08 in1018.6 mb 0.00 in0.0 mm 0.00 in0.0 mm 0.00 in0.0 mm
11:11 AM 79.3°F26.3°C 49.3°F9.6°C 35% 6.3 mph 10.1 kmh 10.7 mph17.2 kmh 30.08 in1018.6 mb 0.00 in0.0 mm 0.00 in0.0 mm 0.00 in0.0 mm
11:13 AM 79.5°F26.4°C 49.5°F9.7°C 35% 4.9 mph ENE7.9 kmh ENE 4.7 mph7.6 kmh 30.08 in1018.6 mb 0.00 in0.0 mm 0.00 in0.0 mm 0.00 in0.0 mm
11:15 AM 79.5°F26.4°C 49.5°F9.7°C 35% 4.0 mph SSE6.4 kmh SSE 4.9 mph7.9 kmh 30.08 in1018.6 mb 0.00 in0.0 mm 0.00 in0.0 mm 0.00 in0.0 mm
11:17 AM 79.9°F26.6°C 47.3°F8.5°C 32% 4.9 mph ESE7.9 kmh ESE 8.5 mph13.7 kmh 30.08 in1018.6 mb 0.00 in0.0 mm 0.00 in0.0 mm 0.00 in0.0 mm
11:19 AM 79.9°F26.6°C 47.3°F8.5°C 32% 6.5 mph 10.5 kmh 11.9 mph19.2 kmh 30.07 in1018.3 mb 0.00 in0.0 mm 0.00 in0.0 mm 0.00 in0.0 mm
11:21 AM 79.9°F26.6°C 46.6°F8.1°C 31% 7.6 mph SE12.2 kmh SE 12.8 mph20.6 kmh 30.08 in1018.6 mb 0.00 in0.0 mm 0.00 in0.0 mm 0.00 in0.0 mm
11:24 AM 80.4°F26.9°C 46.9°F8.3°C 31% 6.3 mph SE10.1 kmh SE 9.2 mph14.8 kmh 30.07 in1018.3 mb 0.00 in0.0 mm 0.00 in0.0 mm 0.00 in0.0 mm
11:26 AM 80.4°F26.9°C 47.8°F8.8°C 32% 4.7 mph NNW7.6 kmh NNW 4.7 mph7.6 kmh 30.07 in1018.3 mb 0.00 in0.0 mm 0.00 in0.0 mm 0.00 in0.0 mm
11:28 AM 80.4°F26.9°C 47.8°F8.8°C 32% 5.6 mph NNE9.0 kmh NNE 11.4 mph18.3 kmh 30.08 in1018.6 mb 0.00 in0.0 mm 0.00 in0.0 mm 0.00 in0.0 mm
11:30 AM 80.1°F26.7°C 48.4°F9.1°C 33% 6.3 mph ENE10.1 kmh ENE 16.1 mph25.9 kmh 30.07 in1018.3 mb 0.00 in0.0 mm 0.00 in0.0 mm 0.00 in0.0 mm
11:33 AM 79.9°F26.6°C 48.9°F9.4°C 34% 5.4 mph WSW8.7 kmh WSW 6.0 mph9.7 kmh 30.07 in1018.3 mb 0.00 in0.0 mm 0.00 in0.0 mm 0.00 in0.0 mm
11:35 AM 79.9°F26.6°C 48.9°F9.4°C 34% 5.6 mph 9.0 kmh 9.6 mph15.4 kmh 30.07 in1018.3 mb 0.00 in0.0 mm 0.00 in0.0 mm 0.00 in0.0 mm
11:37 AM 79.7°F26.5°C 48.9°F9.4°C 34% 5.6 mph ESE9.0 kmh ESE 8.7 mph14.0 kmh 30.07 in1018.3 mb 0.00 in0.0 mm 0.00 in0.0 mm 0.00 in0.0 mm
11:39 AM 79.9°F26.6°C 47.3°F8.5°C 32% 5.4 mph ENE8.7 kmh ENE 9.2 mph14.8 kmh 30.07 in1018.3 mb 0.00 in0.0 mm 0.00 in0.0 mm 0.00 in0.0 mm
11:41 AM 79.9°F26.6°C 48.2°F9.0°C 33% 5.1 mph ENE8.2 kmh ENE 6.7 mph10.8 kmh 30.07 in1018.3 mb 0.00 in0.0 mm 0.00 in0.0 mm 0.00 in0.0 mm
11:43 AM 80.2°F26.8°C 48.6°F9.2°C 33% 5.6 mph E9.0 kmh E 10.3 mph16.6 kmh 30.07 in1018.3 mb 0.00 in0.0 mm 0.00 in0.0 mm 0.00 in0.0 mm
11:45 AM 80.4°F26.9°C 47.8°F8.8°C 32% 5.1 mph SSE8.2 kmh SSE 7.2 mph11.6 kmh 30.07 in1018.3 mb 0.00 in0.0 mm 0.00 in0.0 mm 0.00 in0.0 mm
11:47 AM 80.6°F27.0°C 49.6°F9.8°C 34% 5.8 mph 9.3 kmh 14.3 mph23.0 kmh 30.07 in1018.3 mb 0.00 in0.0 mm 0.00 in0.0 mm 0.00 in0.0 mm
11:49 AM 80.4°F26.9°C 49.5°F9.7°C 34% 4.7 mph NNE7.6 kmh NNE 8.7 mph14.0 kmh 30.07 in1018.3 mb 0.00 in0.0 mm 0.00 in0.0 mm 0.00 in0.0 mm
11:52 AM 80.4°F26.9°C 49.5°F9.7°C 34% 6.0 mph E9.7 kmh E 15.9 mph25.6 kmh 30.08 in1018.6 mb 0.00 in0.0 mm 0.00 in0.0 mm 0.00 in0.0 mm
11:54 AM 80.4°F26.9°C 50.2°F10.1°C 35% 4.7 mph SW7.6 kmh SW 6.7 mph10.8 kmh 30.07 in1018.3 mb 0.00 in0.0 mm 0.00 in0.0 mm 0.00 in0.0 mm
11:56 AM 80.4°F26.9°C 50.2°F10.1°C 35% 4.0 mph S6.4 kmh S 5.8 mph9.3 kmh 30.07 in1018.3 mb 0.00 in0.0 mm 0.00 in0.0 mm 0.00 in0.0 mm
11:58 AM 80.4°F26.9°C 50.2°F10.1°C 35% 3.1 mph 5.0 kmh 5.6 mph9.0 kmh 30.07 in1018.3 mb 0.00 in0.0 mm 0.00 in0.0 mm 0.00 in0.0 mm
12:00 PM 80.8°F27.1°C 50.5°F10.3°C 35% 4.5 mph NE7.2 kmh NE 10.5 mph16.9 kmh 30.07 in1018.3 mb 0.00 in0.0 mm 0.00 in0.0 mm 0.00 in0.0 mm
12:02 PM 81.0°F27.2°C 50.7°F10.4°C 35% 6.0 mph ESE9.7 kmh ESE 12.8 mph20.6 kmh 30.07 in1018.3 mb 0.00 in0.0 mm 0.00 in0.0 mm 0.00 in0.0 mm
12:05 PM 81.1°F27.3°C 50.9°F10.5°C 35% 5.8 mph SW9.3 kmh SW 8.7 mph14.0 kmh 30.07 in1018.3 mb 0.00 in0.0 mm 0.00 in0.0 mm 0.00 in0.0 mm
12:07 PM 80.8°F27.1°C 50.5°F10.3°C 35% 4.9 mph E7.9 kmh E 6.5 mph10.5 kmh 30.07 in1018.3 mb 0.00 in0.0 mm 0.00 in0.0 mm 0.00 in0.0 mm
12:09 PM 81.0°F27.2°C 50.7°F10.4°C 35% 4.7 mph E7.6 kmh E 8.9 mph14.3 kmh 30.07 in1018.3 mb 0.00 in0.0 mm 0.00 in0.0 mm 0.00 in0.0 mm
12:11 PM 81.0°F27.2°C 50.0°F10.0°C 34% 4.7 mph NNE7.6 kmh NNE 7.4 mph11.9 kmh 30.07 in1018.3 mb 0.00 in0.0 mm 0.00 in0.0 mm 0.00 in0.0 mm
12:14 PM 80.8°F27.1°C 49.8°F9.9°C 34% 4.0 mph NNE6.4 kmh NNE 12.3 mph19.8 kmh 30.07 in1018.3 mb 0.00 in0.0 mm 0.00 in0.0 mm 0.00 in0.0 mm
12:16 PM 80.8°F27.1°C 49.8°F9.9°C 34% 4.5 mph SE7.2 kmh SE 10.5 mph16.9 kmh 30.07 in1018.3 mb 0.00 in0.0 mm 0.00 in0.0 mm 0.00 in0.0 mm
12:18 PM 81.1°F27.3°C 50.2°F10.1°C 34% 3.8 mph S6.1 kmh S 6.0 mph9.7 kmh 30.07 in1018.3 mb 0.00 in0.0 mm 0.00 in0.0 mm 0.00 in0.0 mm
12:20 PM 81.3°F27.4°C 50.2°F10.1°C 34% 4.7 mph W7.6 kmh W 9.4 mph15.1 kmh 30.07 in1018.3 mb 0.00 in0.0 mm 0.00 in0.0 mm 0.00 in0.0 mm
12:22 PM 81.3°F27.4°C 48.6°F9.2°C 32% 4.5 mph 7.2 kmh 5.8 mph9.3 kmh 30.07 in1018.3 mb 0.00 in0.0 mm 0.00 in0.0 mm 0.00 in0.0 mm
12:25 PM 81.1°F27.3°C 48.6°F9.2°C 32% 2.9 mph NNE4.7 kmh NNE 5.1 mph8.2 kmh 30.07 in1018.3 mb 0.00 in0.0 mm 0.00 in0.0 mm 0.00 in0.0 mm
12:27 PM 81.1°F27.3°C 49.3°F9.6°C 33% 3.1 mph NNW5.0 kmh NNW 5.4 mph8.7 kmh 30.06 in1017.9 mb 0.00 in0.0 mm 0.00 in0.0 mm 0.00 in0.0 mm
12:29 PM 81.1°F27.3°C 50.2°F10.1°C 34% 3.1 mph ENE5.0 kmh ENE 5.6 mph9.0 kmh 30.06 in1017.9 mb 0.00 in0.0 mm 0.00 in0.0 mm 0.00 in0.0 mm
12:31 PM 81.5°F27.5°C 48.0°F8.9°C 31% 4.0 mph SSW6.4 kmh SSW 11.2 mph18.0 kmh 30.07 in1018.3 mb 0.00 in0.0 mm 0.00 in0.0 mm 0.00 in0.0 mm
12:34 PM 81.3°F27.4°C 47.8°F8.8°C 31% 4.5 mph NE7.2 kmh NE 10.3 mph16.6 kmh 30.06 in1017.9 mb 0.00 in0.0 mm 0.00 in0.0 mm 0.00 in0.0 mm
12:36 PM 81.7°F27.6°C 48.0°F8.9°C 31% 3.1 mph SW5.0 kmh SW 3.6 mph5.8 kmh 30.06 in1017.9 mb 0.00 in0.0 mm 0.00 in0.0 mm 0.00 in0.0 mm
12:38 PM 82.0°F27.8°C 48.4°F9.1°C 31% 4.3 mph ENE6.9 kmh ENE 8.3 mph13.4 kmh 30.07 in1018.3 mb 0.00 in0.0 mm 0.00 in0.0 mm 0.00 in0.0 mm
12:40 PM 82.2°F27.9°C 48.6°F9.2°C 31% 4.0 mph NNW6.4 kmh NNW 7.4 mph11.9 kmh 30.07 in1018.3 mb 0.00 in0.0 mm 0.00 in0.0 mm 0.00 in0.0 mm
12:42 PM 82.2°F27.9°C 47.7°F8.7°C 30% 3.4 mph SSW5.5 kmh SSW 4.9 mph7.9 kmh 30.06 in1017.9 mb 0.00 in0.0 mm 0.00 in0.0 mm 0.00 in0.0 mm
12:44 PM 82.6°F28.1°C 48.0°F8.9°C 30% 4.3 mph E6.9 kmh E 11.6 mph18.7 kmh 30.06 in1017.9 mb 0.00 in0.0 mm 0.00 in0.0 mm 0.00 in0.0 mm
12:46 PM 82.6°F28.1°C 48.0°F8.9°C 30% 3.8 mph S6.1 kmh S 10.5 mph16.9 kmh 30.06 in1017.9 mb 0.00 in0.0 mm 0.00 in0.0 mm 0.00 in0.0 mm
12:48 PM 82.6°F28.1°C 48.0°F8.9°C 30% 4.9 mph 7.9 kmh 10.3 mph16.6 kmh 30.06 in1017.9 mb 0.00 in0.0 mm 0.00 in0.0 mm 0.00 in0.0 mm
12:51 PM 82.2°F27.9°C 47.7°F8.7°C 30% 6.9 mph NNW11.1 kmh NNW 15.9 mph25.6 kmh 30.06 in1017.9 mb 0.00 in0.0 mm 0.00 in0.0 mm 0.00 in0.0 mm
12:53 PM 82.2°F27.9°C 46.8°F8.2°C 29% 6.5 mph W10.5 kmh W 12.5 mph20.1 kmh 30.06 in1017.9 mb 0.00 in0.0 mm 0.00 in0.0 mm 0.00 in0.0 mm
12:55 PM 82.0°F27.8°C 47.5°F8.6°C 30% 5.8 mph NE9.3 kmh NE 9.6 mph15.4 kmh 30.06 in1017.9 mb 0.00 in0.0 mm 0.00 in0.0 mm 0.00 in0.0 mm
12:57 PM 82.2°F27.9°C 46.8°F8.2°C 29% 5.8 mph NNE9.3 kmh NNE 10.5 mph16.9 kmh 30.06 in1017.9 mb 0.00 in0.0 mm 0.00 in0.0 mm 0.00 in0.0 mm
01:00 PM 82.0°F27.8°C 47.5°F8.6°C 30% 6.9 mph NNE11.1 kmh NNE 15.2 mph24.5 kmh 30.06 in1017.9 mb 0.00 in0.0 mm 0.00 in0.0 mm 0.00 in0.0 mm
01:02 PM 81.9°F27.7°C 47.3°F8.5°C 30% 5.6 mph ESE9.0 kmh ESE 8.1 mph13.0 kmh 30.06 in1017.9 mb 0.00 in0.0 mm 0.00 in0.0 mm 0.00 in0.0 mm
01:04 PM 81.7°F27.6°C 47.3°F8.5°C 30% 4.5 mph 7.2 kmh 3.6 mph5.8 kmh 30.06 in1017.9 mb 0.00 in0.0 mm 0.00 in0.0 mm 0.00 in0.0 mm
01:06 PM 81.7°F27.6°C 48.0°F8.9°C 31% 2.9 mph NW4.7 kmh NW 2.5 mph4.0 kmh 30.06 in1017.9 mb 0.00 in0.0 mm 0.00 in0.0 mm 0.00 in0.0 mm
01:09 PM 82.0°F27.8°C 47.5°F8.6°C 30% 3.1 mph 5.0 kmh 7.8 mph12.6 kmh 30.06 in1017.9 mb 0.00 in0.0 mm 0.00 in0.0 mm 0.00 in0.0 mm
01:11 PM 82.4°F28.0°C 47.8°F8.8°C 30% 3.6 mph 5.8 kmh 5.6 mph9.0 kmh 30.06 in1017.9 mb 0.00 in0.0 mm 0.00 in0.0 mm 0.00 in0.0 mm
01:13 PM 82.2°F27.9°C 47.7°F8.7°C 30% 3.6 mph ENE5.8 kmh ENE 7.6 mph12.2 kmh 30.06 in1017.9 mb 0.00 in0.0 mm 0.00 in0.0 mm 0.00 in0.0 mm
01:15 PM 82.6°F28.1°C 48.0°F8.9°C 30% 2.7 mph NE4.3 kmh NE 5.4 mph8.7 kmh 30.06 in1017.9 mb 0.00 in0.0 mm 0.00 in0.0 mm 0.00 in0.0 mm
01:17 PM 82.8°F28.2°C 48.2°F9.0°C 30% 2.7 mph NNW4.3 kmh NNW 5.4 mph8.7 kmh 30.06 in1017.9 mb 0.00 in0.0 mm 0.00 in0.0 mm 0.00 in0.0 mm
01:19 PM 82.8°F28.2°C 48.2°F9.0°C 30% 2.9 mph NW4.7 kmh NW 6.9 mph11.1 kmh 30.06 in1017.9 mb 0.00 in0.0 mm 0.00 in0.0 mm 0.00 in0.0 mm
01:22 PM 83.1°F28.4°C 48.6°F9.2°C 30% 3.4 mph WNW5.5 kmh WNW 8.9 mph14.3 kmh 30.06 in1017.9 mb 0.00 in0.0 mm 0.00 in0.0 mm 0.00 in0.0 mm
01:24 PM 83.1°F28.4°C 48.6°F9.2°C 30% 3.8 mph 6.1 kmh 7.6 mph12.2 kmh 30.06 in1017.9 mb 0.00 in0.0 mm 0.00 in0.0 mm 0.00 in0.0 mm
01:26 PM 83.1°F28.4°C 47.7°F8.7°C 29% 4.7 mph ESE7.6 kmh ESE 8.7 mph14.0 kmh 30.06 in1017.9 mb 0.00 in0.0 mm 0.00 in0.0 mm 0.00 in0.0 mm
01:28 PM 83.3°F28.5°C 47.7°F8.7°C 29% 4.3 mph ENE6.9 kmh ENE 7.4 mph11.9 kmh 30.06 in1017.9 mb 0.00 in0.0 mm 0.00 in0.0 mm 0.00 in0.0 mm
01:31 PM 83.3°F28.5°C 47.7°F8.7°C 29% 4.9 mph ESE7.9 kmh ESE 7.6 mph12.2 kmh 30.06 in1017.9 mb 0.00 in0.0 mm 0.00 in0.0 mm 0.00 in0.0 mm
01:33 PM 83.3°F28.5°C 47.7°F8.7°C 29% 4.7 mph E7.6 kmh E 5.4 mph8.7 kmh 30.06 in1017.9 mb 0.00 in0.0 mm 0.00 in0.0 mm 0.00 in0.0 mm
01:35 PM 83.3°F28.5°C 47.7°F8.7°C 29% 3.1 mph ENE5.0 kmh ENE 2.9 mph4.7 kmh 30.06 in1017.9 mb 0.00 in0.0 mm 0.00 in0.0 mm 0.00 in0.0 mm
01:37 PM 83.3°F28.5°C 47.7°F8.7°C 29% 3.8 mph NW6.1 kmh NW 7.2 mph11.6 kmh 30.06 in1017.9 mb 0.00 in0.0 mm 0.00 in0.0 mm 0.00 in0.0 mm
01:40 PM 83.1°F28.4°C 47.7°F8.7°C 29% 3.8 mph 6.1 kmh 6.7 mph10.8 kmh 30.06 in1017.9 mb 0.00 in0.0 mm 0.00 in0.0 mm 0.00 in0.0 mm
01:42 PM 82.8°F28.2°C 48.2°F9.0°C 30% 4.7 mph NNW7.6 kmh NNW 11.2 mph18.0 kmh 30.05 in1017.6 mb 0.00 in0.0 mm 0.00 in0.0 mm 0.00 in0.0 mm
01:44 PM 82.8°F28.2°C 48.2°F9.0°C 30% 4.5 mph NW7.2 kmh NW 10.1 mph16.3 kmh 30.05 in1017.6 mb 0.00 in0.0 mm 0.00 in0.0 mm 0.00 in0.0 mm
01:46 PM 82.8°F28.2°C 48.2°F9.0°C 30% 4.3 mph SW6.9 kmh SW 7.8 mph12.6 kmh 30.05 in1017.6 mb 0.00 in0.0 mm 0.00 in0.0 mm 0.00 in0.0 mm
01:48 PM 82.9°F28.3°C 48.4°F9.1°C 30% 2.9 mph WSW4.7 kmh WSW 5.4 mph8.7 kmh 30.05 in1017.6 mb 0.00 in0.0 mm 0.00 in0.0 mm 0.00 in0.0 mm
01:50 PM 83.3°F28.5°C 47.7°F8.7°C 29% 2.9 mph WNW4.7 kmh WNW 5.1 mph8.2 kmh 30.05 in1017.6 mb 0.00 in0.0 mm 0.00 in0.0 mm 0.00 in0.0 mm
01:53 PM 83.5°F28.6°C 47.8°F8.8°C 29% 2.2 mph SW3.5 kmh SW 3.8 mph6.1 kmh 30.05 in1017.6 mb 0.00 in0.0 mm 0.00 in0.0 mm 0.00 in0.0 mm
01:55 PM 83.5°F28.6°C 47.8°F8.8°C 29% 2.5 mph E4.0 kmh E 6.5 mph10.5 kmh 30.05 in1017.6 mb 0.00 in0.0 mm 0.00 in0.0 mm 0.00 in0.0 mm
01:57 PM 83.5°F28.6°C 47.8°F8.8°C 29% 3.1 mph SE5.0 kmh SE 7.4 mph11.9 kmh 30.05 in1017.6 mb 0.00 in0.0 mm 0.00 in0.0 mm 0.00 in0.0 mm
01:59 PM 83.3°F28.5°C 47.7°F8.7°C 29% 2.0 mph NNE3.2 kmh NNE 1.3 mph2.1 kmh 30.05 in1017.6 mb 0.00 in0.0 mm 0.00 in0.0 mm 0.00 in0.0 mm
02:01 PM 83.3°F28.5°C 48.6°F9.2°C 30% 1.3 mph WSW2.1 kmh WSW 3.1 mph5.0 kmh 30.05 in1017.6 mb 0.00 in0.0 mm 0.00 in0.0 mm 0.00 in0.0 mm
02:04 PM 83.5°F28.6°C 48.7°F9.3°C 30% 1.8 mph SW2.9 kmh SW 3.6 mph5.8 kmh 30.05 in1017.6 mb 0.00 in0.0 mm 0.00 in0.0 mm 0.00 in0.0 mm
02:06 PM 84.0°F28.9°C 48.4°F9.1°C 29% 3.6 mph NNW5.8 kmh NNW 8.9 mph14.3 kmh 30.05 in1017.6 mb 0.00 in0.0 mm 0.00 in0.0 mm 0.00 in0.0 mm
02:08 PM 83.8°F28.8°C 48.2°F9.0°C 29% 2.7 mph WNW4.3 kmh WNW 9.2 mph14.8 kmh 30.05 in1017.6 mb 0.00 in0.0 mm 0.00 in0.0 mm 0.00 in0.0 mm
02:11 PM 83.5°F28.6°C 47.8°F8.8°C 29% 3.1 mph ENE5.0 kmh ENE 8.1 mph13.0 kmh 30.05 in1017.6 mb 0.00 in0.0 mm 0.00 in0.0 mm 0.00 in0.0 mm
02:13 PM 83.5°F28.6°C 47.8°F8.8°C 29% 4.5 mph ENE7.2 kmh ENE 11.4 mph18.3 kmh 30.04 in1017.3 mb 0.00 in0.0 mm 0.00 in0.0 mm 0.00 in0.0 mm
02:15 PM 83.5°F28.6°C 47.8°F8.8°C 29% 4.7 mph E7.6 kmh E 9.2 mph14.8 kmh 30.04 in1017.3 mb 0.00 in0.0 mm 0.00 in0.0 mm 0.00 in0.0 mm
02:17 PM 83.5°F28.6°C 47.8°F8.8°C 29% 5.6 mph 9.0 kmh 11.0 mph17.7 kmh 30.05 in1017.6 mb 0.00 in0.0 mm 0.00 in0.0 mm 0.00 in0.0 mm
02:19 PM 83.7°F28.7°C 47.1°F8.4°C 28% 5.6 mph NNW9.0 kmh NNW 11.2 mph18.0 kmh 30.05 in1017.6 mb 0.00 in0.0 mm 0.00 in0.0 mm 0.00 in0.0 mm
02:21 PM 83.3°F28.5°C 47.7°F8.7°C 29% 6.0 mph NNW9.7 kmh NNW 11.0 mph17.7 kmh 30.05 in1017.6 mb 0.00 in0.0 mm 0.00 in0.0 mm 0.00 in0.0 mm
02:23 PM 82.9°F28.3°C 47.5°F8.6°C 29% 6.7 mph NNW10.8 kmh NNW 11.9 mph19.2 kmh 30.04 in1017.3 mb 0.00 in0.0 mm 0.00 in0.0 mm 0.00 in0.0 mm
02:25 PM 82.4°F28.0°C 46.9°F8.3°C 29% 4.5 mph NNE7.2 kmh NNE 3.1 mph5.0 kmh 30.04 in1017.3 mb 0.00 in0.0 mm 0.00 in0.0 mm 0.00 in0.0 mm
02:28 PM 82.6°F28.1°C 47.1°F8.4°C 29% 3.6 mph WNW5.8 kmh WNW 5.6 mph9.0 kmh 30.04 in1017.3 mb 0.00 in0.0 mm 0.00 in0.0 mm 0.00 in0.0 mm
02:30 PM 82.4°F28.0°C 47.8°F8.8°C 30% 2.5 mph W4.0 kmh W 3.1 mph5.0 kmh 30.04 in1017.3 mb 0.00 in0.0 mm 0.00 in0.0 mm 0.00 in0.0 mm
02:32 PM 82.6°F28.1°C 47.1°F8.4°C 29% 2.9 mph NNE4.7 kmh NNE 8.1 mph13.0 kmh 30.04 in1017.3 mb 0.00 in0.0 mm 0.00 in0.0 mm 0.00 in0.0 mm
02:35 PM 82.8°F28.2°C 47.3°F8.5°C 29% 4.3 mph 6.9 kmh 8.3 mph13.4 kmh 30.04 in1017.3 mb 0.00 in0.0 mm 0.00 in0.0 mm 0.00 in0.0 mm
02:37 PM 83.1°F28.4°C 47.7°F8.7°C 29% 3.1 mph NNE5.0 kmh NNE 4.5 mph7.2 kmh 30.04 in1017.3 mb 0.00 in0.0 mm 0.00 in0.0 mm 0.00 in0.0 mm
02:39 PM 83.3°F28.5°C 47.7°F8.7°C 29% 2.7 mph SW4.3 kmh SW 4.7 mph7.6 kmh 30.04 in1017.3 mb 0.00 in0.0 mm 0.00 in0.0 mm 0.00 in0.0 mm
02:41 PM 83.5°F28.6°C 47.8°F8.8°C 29% 4.3 mph NNE6.9 kmh NNE 9.4 mph15.1 kmh 30.04 in1017.3 mb 0.00 in0.0 mm 0.00 in0.0 mm 0.00 in0.0 mm
02:43 PM 83.3°F28.5°C 47.7°F8.7°C 29% 4.5 mph ENE7.2 kmh ENE 7.2 mph11.6 kmh 30.03 in1016.9 mb 0.00 in0.0 mm 0.00 in0.0 mm 0.00 in0.0 mm
02:46 PM 83.5°F28.6°C 47.8°F8.8°C 29% 2.9 mph WNW4.7 kmh WNW 7.8 mph12.6 kmh 30.03 in1016.9 mb 0.00 in0.0 mm 0.00 in0.0 mm 0.00 in0.0 mm
02:48 PM 83.5°F28.6°C 47.8°F8.8°C 29% 2.5 mph ENE4.0 kmh ENE 4.3 mph6.9 kmh 30.03 in1016.9 mb 0.00 in0.0 mm 0.00 in0.0 mm 0.00 in0.0 mm
02:50 PM 83.8°F28.8°C 48.2°F9.0°C 29% 3.4 mph NW5.5 kmh NW 10.5 mph16.9 kmh 30.03 in1016.9 mb 0.00 in0.0 mm 0.00 in0.0 mm 0.00 in0.0 mm
02:52 PM 83.7°F28.7°C 47.1°F8.4°C 28% 4.7 mph E7.6 kmh E 11.6 mph18.7 kmh 30.03 in1016.9 mb 0.00 in0.0 mm 0.00 in0.0 mm 0.00 in0.0 mm
02:54 PM 83.5°F28.6°C 46.9°F8.3°C 28% 4.9 mph WNW7.9 kmh WNW 11.0 mph17.7 kmh 30.03 in1016.9 mb 0.00 in0.0 mm 0.00 in0.0 mm 0.00 in0.0 mm
02:56 PM 83.5°F28.6°C 46.9°F8.3°C 28% 3.6 mph S5.8 kmh S 4.0 mph6.4 kmh 30.03 in1016.9 mb 0.00 in0.0 mm 0.00 in0.0 mm 0.00 in0.0 mm
02:59 PM 83.5°F28.6°C 47.8°F8.8°C 29% 2.5 mph 4.0 kmh 2.5 mph4.0 kmh 30.03 in1016.9 mb 0.00 in0.0 mm 0.00 in0.0 mm 0.00 in0.0 mm
03:01 PM 83.5°F28.6°C 47.8°F8.8°C 29% 2.9 mph ENE4.7 kmh ENE 6.3 mph10.1 kmh 30.03 in1016.9 mb 0.00 in0.0 mm 0.00 in0.0 mm 0.00 in0.0 mm
03:03 PM 83.5°F28.6°C 47.8°F8.8°C 29% 4.0 mph 6.4 kmh 12.5 mph20.1 kmh 30.03 in1016.9 mb 0.00 in0.0 mm 0.00 in0.0 mm 0.00 in0.0 mm
03:05 PM 83.5°F28.6°C 46.9°F8.3°C 28% 4.3 mph 6.9 kmh 7.2 mph11.6 kmh 30.03 in1016.9 mb 0.00 in0.0 mm 0.00 in0.0 mm 0.00 in0.0 mm
03:07 PM 83.1°F28.4°C 47.7°F8.7°C 29% 4.5 mph ENE7.2 kmh ENE 12.1 mph19.5 kmh 30.03 in1016.9 mb 0.00 in0.0 mm 0.00 in0.0 mm 0.00 in0.0 mm
03:10 PM 83.1°F28.4°C 47.7°F8.7°C 29% 3.1 mph SW5.0 kmh SW 6.7 mph10.8 kmh 30.03 in1016.9 mb 0.00 in0.0 mm 0.00 in0.0 mm 0.00 in0.0 mm
03:12 PM 83.5°F28.6°C 47.8°F8.8°C 29% 2.2 mph SSE3.5 kmh SSE 3.1 mph5.0 kmh 30.03 in1016.9 mb 0.00 in0.0 mm 0.00 in0.0 mm 0.00 in0.0 mm
03:14 PM 83.5°F28.6°C 47.8°F8.8°C 29% 1.8 mph WNW2.9 kmh WNW 2.5 mph4.0 kmh 30.03 in1016.9 mb 0.00 in0.0 mm 0.00 in0.0 mm 0.00 in0.0 mm
03:16 PM 83.5°F28.6°C 46.9°F8.3°C 28% 3.6 mph ENE5.8 kmh ENE 8.3 mph13.4 kmh 30.03 in1016.9 mb 0.00 in0.0 mm 0.00 in0.0 mm 0.00 in0.0 mm
03:18 PM 83.1°F28.4°C 47.7°F8.7°C 29% 4.3 mph NNW6.9 kmh NNW 9.2 mph14.8 kmh 30.03 in1016.9 mb 0.00 in0.0 mm 0.00 in0.0 mm 0.00 in0.0 mm
03:21 PM 82.9°F28.3°C 47.5°F8.6°C 29% 4.0 mph NNE6.4 kmh NNE 5.8 mph9.3 kmh 30.03 in1016.9 mb 0.00 in0.0 mm 0.00 in0.0 mm 0.00 in0.0 mm
03:23 PM 82.6°F28.1°C 47.1°F8.4°C 29% 3.8 mph E6.1 kmh E 6.0 mph9.7 kmh 30.03 in1016.9 mb 0.00 in0.0 mm 0.00 in0.0 mm 0.00 in0.0 mm
03:25 PM 82.9°F28.3°C 47.5°F8.6°C 29% 2.9 mph W4.7 kmh W 5.1 mph8.2 kmh 30.03 in1016.9 mb 0.00 in0.0 mm 0.00 in0.0 mm 0.00 in0.0 mm
03:27 PM 82.8°F28.2°C 47.3°F8.5°C 29% 3.6 mph WNW5.8 kmh WNW 7.6 mph12.2 kmh 30.03 in1016.9 mb 0.00 in0.0 mm 0.00 in0.0 mm 0.00 in0.0 mm
03:30 PM 82.9°F28.3°C 47.5°F8.6°C 29% 2.7 mph NNW4.3 kmh NNW 5.4 mph8.7 kmh 30.03 in1016.9 mb 0.00 in0.0 mm 0.00 in0.0 mm 0.00 in0.0 mm
03:32 PM 82.9°F28.3°C 47.5°F8.6°C 29% 2.9 mph NNE4.7 kmh NNE 5.4 mph8.7 kmh 30.03 in1016.9 mb 0.00 in0.0 mm 0.00 in0.0 mm 0.00 in0.0 mm
03:34 PM 83.1°F28.4°C 47.7°F8.7°C 29% 3.8 mph ENE6.1 kmh ENE 7.6 mph12.2 kmh 30.03 in1016.9 mb 0.00 in0.0 mm 0.00 in0.0 mm 0.00 in0.0 mm
03:36 PM 83.5°F28.6°C 46.9°F8.3°C 28% 5.4 mph NNE8.7 kmh NNE 10.3 mph16.6 kmh 30.03 in1016.9 mb 0.00 in0.0 mm 0.00 in0.0 mm 0.00 in0.0 mm
03:38 PM 83.5°F28.6°C 46.9°F8.3°C 28% 4.5 mph SSW7.2 kmh SSW 11.0 mph17.7 kmh 30.03 in1016.9 mb 0.00 in0.0 mm 0.00 in0.0 mm 0.00 in0.0 mm
03:41 PM 83.7°F28.7°C 47.1°F8.4°C 28% 3.4 mph SE5.5 kmh SE 3.8 mph6.1 kmh 30.03 in1016.9 mb 0.00 in0.0 mm 0.00 in0.0 mm 0.00 in0.0 mm
03:43 PM 83.7°F28.7°C 47.1°F8.4°C 28% 4.0 mph NNW6.4 kmh NNW 8.3 mph13.4 kmh 30.03 in1016.9 mb 0.00 in0.0 mm 0.00 in0.0 mm 0.00 in0.0 mm
03:45 PM 83.5°F28.6°C 46.9°F8.3°C 28% 3.8 mph E6.1 kmh E 7.4 mph11.9 kmh 30.03 in1016.9 mb 0.00 in0.0 mm 0.00 in0.0 mm 0.00 in0.0 mm
03:47 PM 83.5°F28.6°C 46.9°F8.3°C 28% 4.3 mph E6.9 kmh E 7.6 mph12.2 kmh 30.03 in1016.9 mb 0.00 in0.0 mm 0.00 in0.0 mm 0.00 in0.0 mm
03:49 PM 83.5°F28.6°C 46.9°F8.3°C 28% 4.9 mph ESE7.9 kmh ESE 6.5 mph10.5 kmh 30.03 in1016.9 mb 0.00 in0.0 mm 0.00 in0.0 mm 0.00 in0.0 mm
03:52 PM 82.9°F28.3°C 47.5°F8.6°C 29% 4.0 mph E6.4 kmh E 5.1 mph8.2 kmh 30.03 in1016.9 mb 0.00 in0.0 mm 0.00 in0.0 mm 0.00 in0.0 mm
03:54 PM 82.9°F28.3°C 47.5°F8.6°C 29% 2.2 mph SSE3.5 kmh SSE 1.1 mph1.8 kmh 30.03 in1016.9 mb 0.00 in0.0 mm 0.00 in0.0 mm 0.00 in0.0 mm
03:56 PM 83.1°F28.4°C 47.7°F8.7°C 29% 1.6 mph S2.6 kmh S 3.1 mph5.0 kmh 30.03 in1016.9 mb 0.00 in0.0 mm 0.00 in0.0 mm 0.00 in0.0 mm
03:58 PM 83.3°F28.5°C 47.7°F8.7°C 29% 2.7 mph E4.3 kmh E 7.6 mph12.2 kmh 30.03 in1016.9 mb 0.00 in0.0 mm 0.00 in0.0 mm 0.00 in0.0 mm
04:00 PM 83.8°F28.8°C 47.3°F8.5°C 28% 3.8 mph NNE6.1 kmh NNE 8.5 mph13.7 kmh 30.03 in1016.9 mb 0.00 in0.0 mm 0.00 in0.0 mm 0.00 in0.0 mm
04:03 PM 83.8°F28.8°C 47.3°F8.5°C 28% 3.8 mph NW6.1 kmh NW 7.8 mph12.6 kmh 30.03 in1016.9 mb 0.00 in0.0 mm 0.00 in0.0 mm 0.00 in0.0 mm
04:05 PM 84.0°F28.9°C 47.5°F8.6°C 28% 4.3 mph 6.9 kmh 6.9 mph11.1 kmh 30.03 in1016.9 mb 0.00 in0.0 mm 0.00 in0.0 mm 0.00 in0.0 mm
04:07 PM 83.8°F28.8°C 47.3°F8.5°C 28% 3.4 mph NW5.5 kmh NW 3.4 mph5.5 kmh 30.03 in1016.9 mb 0.00 in0.0 mm 0.00 in0.0 mm 0.00 in0.0 mm
04:09 PM 83.7°F28.7°C 47.1°F8.4°C 28% 2.2 mph W3.5 kmh W 2.2 mph3.5 kmh 30.03 in1016.9 mb 0.00 in0.0 mm 0.00 in0.0 mm 0.00 in0.0 mm
04:11 PM 83.8°F28.8°C 47.3°F8.5°C 28% 2.2 mph NNW3.5 kmh NNW 6.3 mph10.1 kmh 30.02 in1016.6 mb 0.00 in0.0 mm 0.00 in0.0 mm 0.00 in0.0 mm
04:13 PM 83.8°F28.8°C 47.3°F8.5°C 28% 3.6 mph SSW5.8 kmh SSW 7.2 mph11.6 kmh 30.03 in1016.9 mb 0.00 in0.0 mm 0.00 in0.0 mm 0.00 in0.0 mm
04:16 PM 83.5°F28.6°C 46.9°F8.3°C 28% 3.8 mph NNW6.1 kmh NNW 5.6 mph9.0 kmh 30.03 in1016.9 mb 0.00 in0.0 mm 0.00 in0.0 mm 0.00 in0.0 mm
04:18 PM 83.3°F28.5°C 46.8°F8.2°C 28% 2.7 mph W4.3 kmh W 6.5 mph10.5 kmh 30.02 in1016.6 mb 0.00 in0.0 mm 0.00 in0.0 mm 0.00 in0.0 mm
04:20 PM 83.3°F28.5°C 46.8°F8.2°C 28% 3.8 mph NNW6.1 kmh NNW 8.5 mph13.7 kmh 30.03 in1016.9 mb 0.00 in0.0 mm 0.00 in0.0 mm 0.00 in0.0 mm
04:22 PM 83.3°F28.5°C 46.8°F8.2°C 28% 2.2 mph NW3.5 kmh NW 3.1 mph5.0 kmh 30.03 in1016.9 mb 0.00 in0.0 mm 0.00 in0.0 mm 0.00 in0.0 mm
04:25 PM 83.3°F28.5°C 46.8°F8.2°C 28% 2.7 mph WNW4.3 kmh WNW 7.4 mph11.9 kmh 30.03 in1016.9 mb 0.00 in0.0 mm 0.00 in0.0 mm 0.00 in0.0 mm
04:27 PM 83.3°F28.5°C 46.8°F8.2°C 28% 1.8 mph W2.9 kmh W 2.7 mph4.3 kmh 30.03 in1016.9 mb 0.00 in0.0 mm 0.00 in0.0 mm 0.00 in0.0 mm
04:29 PM 83.3°F28.5°C 47.7°F8.7°C 29% 1.1 mph WSW1.8 kmh WSW 0.7 mph1.1 kmh 30.03 in1016.9 mb 0.00 in0.0 mm 0.00 in0.0 mm 0.00 in0.0 mm
04:31 PM 83.5°F28.6°C 47.8°F8.8°C 29% 0.7 mph W1.1 kmh W 2.0 mph3.2 kmh 30.03 in1016.9 mb 0.00 in0.0 mm 0.00 in0.0 mm 0.00 in0.0 mm
04:33 PM 83.8°F28.8°C 47.3°F8.5°C 28% 1.6 mph W2.6 kmh W 4.5 mph7.2 kmh 30.03 in1016.9 mb 0.00 in0.0 mm 0.00 in0.0 mm 0.00 in0.0 mm
04:36 PM 84.0°F28.9°C 47.5°F8.6°C 28% 2.0 mph NNW3.2 kmh NNW 4.7 mph7.6 kmh 30.03 in1016.9 mb 0.00 in0.0 mm 0.00 in0.0 mm 0.00 in0.0 mm
04:38 PM 83.7°F28.7°C 47.1°F8.4°C 28% 2.0 mph NE3.2 kmh NE 4.3 mph6.9 kmh 30.03 in1016.9 mb 0.00 in0.0 mm 0.00 in0.0 mm 0.00 in0.0 mm
04:40 PM 83.5°F28.6°C 46.9°F8.3°C 28% 2.2 mph NNE3.5 kmh NNE 5.6 mph9.0 kmh 30.03 in1016.9 mb 0.00 in0.0 mm 0.00 in0.0 mm 0.00 in0.0 mm
04:42 PM 83.5°F28.6°C 46.9°F8.3°C 28% 3.4 mph NNE5.5 kmh NNE 12.8 mph20.6 kmh 30.03 in1016.9 mb 0.00 in0.0 mm 0.00 in0.0 mm 0.00 in0.0 mm
04:44 PM 83.5°F28.6°C 46.9°F8.3°C 28% 3.4 mph WSW5.5 kmh WSW 10.1 mph16.3 kmh 30.03 in1016.9 mb 0.00 in0.0 mm 0.00 in0.0 mm 0.00 in0.0 mm
04:46 PM 83.3°F28.5°C 46.8°F8.2°C 28% 3.4 mph NW5.5 kmh NW 6.0 mph9.7 kmh 30.03 in1016.9 mb 0.00 in0.0 mm 0.00 in0.0 mm 0.00 in0.0 mm
04:49 PM 83.3°F28.5°C 46.8°F8.2°C 28% 2.5 mph WNW4.0 kmh WNW 4.0 mph6.4 kmh 30.03 in1016.9 mb 0.00 in0.0 mm 0.00 in0.0 mm 0.00 in0.0 mm
04:51 PM 83.1°F28.4°C 46.6°F8.1°C 28% 2.5 mph NNW4.0 kmh NNW 3.6 mph5.8 kmh 30.03 in1016.9 mb 0.00 in0.0 mm 0.00 in0.0 mm 0.00 in0.0 mm
04:53 PM 83.3°F28.5°C 46.8°F8.2°C 28% 2.7 mph 4.3 kmh 4.0 mph6.4 kmh 30.03 in1016.9 mb 0.00 in0.0 mm 0.00 in0.0 mm 0.00 in0.0 mm
04:55 PM 83.1°F28.4°C 47.7°F8.7°C 29% 3.6 mph NNE5.8 kmh NNE 8.5 mph13.7 kmh 30.03 in1016.9 mb 0.00 in0.0 mm 0.00 in0.0 mm 0.00 in0.0 mm
04:58 PM 82.9°F28.3°C 47.5°F8.6°C 29% 4.9 mph ENE7.9 kmh ENE 10.7 mph17.2 kmh 30.03 in1016.9 mb 0.00 in0.0 mm 0.00 in0.0 mm 0.00 in0.0 mm
05:00 PM 82.8°F28.2°C 47.3°F8.5°C 29% 3.1 mph NNE5.0 kmh NNE 5.4 mph8.7 kmh 30.03 in1016.9 mb 0.00 in0.0 mm 0.00 in0.0 mm 0.00 in0.0 mm
05:02 PM 82.8°F28.2°C 47.3°F8.5°C 29% 3.8 mph 6.1 kmh 10.5 mph16.9 kmh 30.03 in1016.9 mb 0.00 in0.0 mm 0.00 in0.0 mm 0.00 in0.0 mm
05:05 PM 82.6°F28.1°C 47.1°F8.4°C 29% 2.5 mph E4.0 kmh E 2.2 mph3.5 kmh 30.03 in1016.9 mb 0.00 in0.0 mm 0.00 in0.0 mm 0.00 in0.0 mm
05:07 PM 82.8°F28.2°C 47.3°F8.5°C 29% 1.8 mph NW2.9 kmh NW 2.7 mph4.3 kmh 30.03 in1016.9 mb 0.00 in0.0 mm 0.00 in0.0 mm 0.00 in0.0 mm
05:09 PM 82.9°F28.3°C 47.5°F8.6°C 29% 1.8 mph ENE2.9 kmh ENE 4.0 mph6.4 kmh 30.03 in1016.9 mb 0.00 in0.0 mm 0.00 in0.0 mm 0.00 in0.0 mm
05:11 PM 82.8°F28.2°C 47.3°F8.5°C 29% 4.0 mph 6.4 kmh 7.4 mph11.9 kmh 30.03 in1016.9 mb 0.00 in0.0 mm 0.00 in0.0 mm 0.00 in0.0 mm
05:14 PM 82.6°F28.1°C 47.1°F8.4°C 29% 3.8 mph W6.1 kmh W 3.8 mph6.1 kmh 30.03 in1016.9 mb 0.00 in0.0 mm 0.00 in0.0 mm 0.00 in0.0 mm
05:16 PM 82.2°F27.9°C 46.8°F8.2°C 29% 4.0 mph ENE6.4 kmh ENE 7.6 mph12.2 kmh 30.03 in1016.9 mb 0.00 in0.0 mm 0.00 in0.0 mm 0.00 in0.0 mm
05:18 PM 82.2°F27.9°C 46.8°F8.2°C 29% 3.1 mph NNE5.0 kmh NNE 3.8 mph6.1 kmh 30.03 in1016.9 mb 0.00 in0.0 mm 0.00 in0.0 mm 0.00 in0.0 mm
05:20 PM 82.2°F27.9°C 46.8°F8.2°C 29% 3.4 mph WSW5.5 kmh WSW 11.0 mph17.7 kmh 30.03 in1016.9 mb 0.00 in0.0 mm 0.00 in0.0 mm 0.00 in0.0 mm
05:22 PM 82.0°F27.8°C 47.5°F8.6°C 30% 3.4 mph E5.5 kmh E 8.3 mph13.4 kmh 30.03 in1016.9 mb 0.00 in0.0 mm 0.00 in0.0 mm 0.00 in0.0 mm
05:25 PM 82.0°F27.8°C 47.5°F8.6°C 30% 2.7 mph SSW4.3 kmh SSW 5.4 mph8.7 kmh 30.03 in1016.9 mb 0.00 in0.0 mm 0.00 in0.0 mm 0.00 in0.0 mm
05:27 PM 82.0°F27.8°C 47.5°F8.6°C 30% 4.9 mph NW7.9 kmh NW 9.6 mph15.4 kmh 30.03 in1016.9 mb 0.00 in0.0 mm 0.00 in0.0 mm 0.00 in0.0 mm
05:29 PM 82.0°F27.8°C 47.5°F8.6°C 30% 4.3 mph SE6.9 kmh SE 7.4 mph11.9 kmh 30.03 in1016.9 mb 0.00 in0.0 mm 0.00 in0.0 mm 0.00 in0.0 mm
05:31 PM 82.0°F27.8°C 46.6°F8.1°C 29% 4.9 mph NNW7.9 kmh NNW 8.1 mph13.0 kmh 30.03 in1016.9 mb 0.00 in0.0 mm 0.00 in0.0 mm 0.00 in0.0 mm
05:34 PM 81.7°F27.6°C 47.3°F8.5°C 30% 3.4 mph W5.5 kmh W 2.5 mph4.0 kmh 30.03 in1016.9 mb 0.00 in0.0 mm 0.00 in0.0 mm 0.00 in0.0 mm
05:36 PM 81.7°F27.6°C 47.3°F8.5°C 30% 3.8 mph ENE6.1 kmh ENE 11.4 mph18.3 kmh 30.03 in1016.9 mb 0.00 in0.0 mm 0.00 in0.0 mm 0.00 in0.0 mm
05:38 PM 81.9°F27.7°C 47.3°F8.5°C 30% 3.6 mph SE5.8 kmh SE 6.9 mph11.1 kmh 30.03 in1016.9 mb 0.00 in0.0 mm 0.00 in0.0 mm 0.00 in0.0 mm
05:40 PM 81.7°F27.6°C 47.3°F8.5°C 30% 4.5 mph NNW7.2 kmh NNW 10.7 mph17.2 kmh 30.03 in1016.9 mb 0.00 in0.0 mm 0.00 in0.0 mm 0.00 in0.0 mm
05:42 PM 81.5°F27.5°C 46.2°F7.9°C 29% 5.1 mph NNW8.2 kmh NNW 7.6 mph12.2 kmh 30.03 in1016.9 mb 0.00 in0.0 mm 0.00 in0.0 mm 0.00 in0.0 mm
05:45 PM 81.3°F27.4°C 46.9°F8.3°C 30% 4.0 mph NNE6.4 kmh NNE 8.3 mph13.4 kmh 30.03 in1016.9 mb 0.00 in0.0 mm 0.00 in0.0 mm 0.00 in0.0 mm
05:47 PM 81.5°F27.5°C 47.1°F8.4°C 30% 2.2 mph NNE3.5 kmh NNE 1.6 mph2.6 kmh 30.03 in1016.9 mb 0.00 in0.0 mm 0.00 in0.0 mm 0.00 in0.0 mm
05:49 PM 81.5°F27.5°C 47.1°F8.4°C 30% 1.8 mph 2.9 kmh 5.6 mph9.0 kmh 30.03 in1016.9 mb 0.00 in0.0 mm 0.00 in0.0 mm 0.00 in0.0 mm
05:51 PM 81.5°F27.5°C 47.1°F8.4°C 30% 2.5 mph NNE4.0 kmh NNE 5.1 mph8.2 kmh 30.03 in1016.9 mb 0.00 in0.0 mm 0.00 in0.0 mm 0.00 in0.0 mm
05:53 PM 81.5°F27.5°C 47.1°F8.4°C 30% 3.1 mph E5.0 kmh E 6.9 mph11.1 kmh 30.03 in1016.9 mb 0.00 in0.0 mm 0.00 in0.0 mm 0.00 in0.0 mm
05:56 PM 81.3°F27.4°C 46.9°F8.3°C 30% 2.7 mph WNW4.3 kmh WNW 3.8 mph6.1 kmh 30.03 in1016.9 mb 0.00 in0.0 mm 0.00 in0.0 mm 0.00 in0.0 mm
05:58 PM 81.3°F27.4°C 46.9°F8.3°C 30% 4.5 mph ENE7.2 kmh ENE 10.7 mph17.2 kmh 30.03 in1016.9 mb 0.00 in0.0 mm 0.00 in0.0 mm 0.00 in0.0 mm
06:00 PM 81.1°F27.3°C 46.8°F8.2°C 30% 4.5 mph NNW7.2 kmh NNW 5.8 mph9.3 kmh 30.04 in1017.3 mb 0.00 in0.0 mm 0.00 in0.0 mm 0.00 in0.0 mm
06:02 PM 81.1°F27.3°C 46.8°F8.2°C 30% 3.6 mph NE5.8 kmh NE 4.7 mph7.6 kmh 30.03 in1016.9 mb 0.00 in0.0 mm 0.00 in0.0 mm 0.00 in0.0 mm
06:04 PM 81.1°F27.3°C 46.8°F8.2°C 30% 3.1 mph ENE5.0 kmh ENE 4.0 mph6.4 kmh 30.03 in1016.9 mb 0.00 in0.0 mm 0.00 in0.0 mm 0.00 in0.0 mm
06:06 PM 81.1°F27.3°C 46.8°F8.2°C 30% 3.1 mph 5.0 kmh 5.4 mph8.7 kmh 30.04 in1017.3 mb 0.00 in0.0 mm 0.00 in0.0 mm 0.00 in0.0 mm
06:09 PM 81.1°F27.3°C 46.8°F8.2°C 30% 3.1 mph WNW5.0 kmh WNW 7.4 mph11.9 kmh 30.04 in1017.3 mb 0.00 in0.0 mm 0.00 in0.0 mm 0.00 in0.0 mm
06:11 PM 81.0°F27.2°C 46.6°F8.1°C 30% 3.6 mph NNE5.8 kmh NNE 8.5 mph13.7 kmh 30.04 in1017.3 mb 0.00 in0.0 mm 0.00 in0.0 mm 0.00 in0.0 mm
06:13 PM 80.8°F27.1°C 46.4°F8.0°C 30% 3.4 mph 5.5 kmh 4.7 mph7.6 kmh 30.03 in1016.9 mb 0.00 in0.0 mm 0.00 in0.0 mm 0.00 in0.0 mm
06:15 PM 80.8°F27.1°C 46.4°F8.0°C 30% 2.7 mph NE4.3 kmh NE 5.1 mph8.2 kmh 30.04 in1017.3 mb 0.00 in0.0 mm 0.00 in0.0 mm 0.00 in0.0 mm
06:17 PM 80.8°F27.1°C 46.4°F8.0°C 30% 6.5 mph NNE10.5 kmh NNE 14.3 mph23.0 kmh 30.04 in1017.3 mb 0.00 in0.0 mm 0.00 in0.0 mm 0.00 in0.0 mm
06:19 PM 80.4°F26.9°C 46.2°F7.9°C 30% 5.1 mph NNE8.2 kmh NNE 11.0 mph17.7 kmh 30.04 in1017.3 mb 0.00 in0.0 mm 0.00 in0.0 mm 0.00 in0.0 mm
06:22 PM 80.4°F26.9°C 46.2°F7.9°C 30% 5.1 mph 8.2 kmh 9.4 mph15.1 kmh 30.04 in1017.3 mb 0.00 in0.0 mm 0.00 in0.0 mm 0.00 in0.0 mm
06:24 PM 80.2°F26.8°C 46.0°F7.8°C 30% 3.1 mph 5.0 kmh 2.9 mph4.7 kmh 30.04 in1017.3 mb 0.00 in0.0 mm 0.00 in0.0 mm 0.00 in0.0 mm
06:26 PM 80.2°F26.8°C 46.0°F7.8°C 30% 3.1 mph ENE5.0 kmh ENE 6.0 mph9.7 kmh 30.04 in1017.3 mb 0.00 in0.0 mm 0.00 in0.0 mm 0.00 in0.0 mm
06:28 PM 80.1°F26.7°C 46.8°F8.2°C 31% 2.9 mph NW4.7 kmh NW 4.7 mph7.6 kmh 30.04 in1017.3 mb 0.00 in0.0 mm 0.00 in0.0 mm 0.00 in0.0 mm
06:31 PM 80.2°F26.8°C 46.9°F8.3°C 31% 2.2 mph ESE3.5 kmh ESE 3.8 mph6.1 kmh 30.05 in1017.6 mb 0.00 in0.0 mm 0.00 in0.0 mm 0.00 in0.0 mm
06:33 PM 80.1°F26.7°C 46.8°F8.2°C 31% 2.9 mph SW4.7 kmh SW 7.6 mph12.2 kmh 30.05 in1017.6 mb 0.00 in0.0 mm 0.00 in0.0 mm 0.00 in0.0 mm
06:35 PM 79.9°F26.6°C 46.6°F8.1°C 31% 2.7 mph NNW4.3 kmh NNW 6.0 mph9.7 kmh 30.04 in1017.3 mb 0.00 in0.0 mm 0.00 in0.0 mm 0.00 in0.0 mm
06:37 PM 79.9°F26.6°C 46.6°F8.1°C 31% 3.4 mph ENE5.5 kmh ENE 7.6 mph12.2 kmh 30.04 in1017.3 mb 0.00 in0.0 mm 0.00 in0.0 mm 0.00 in0.0 mm
06:40 PM 79.7°F26.5°C 46.4°F8.0°C 31% 3.4 mph NNW5.5 kmh NNW 6.0 mph9.7 kmh 30.04 in1017.3 mb 0.00 in0.0 mm 0.00 in0.0 mm 0.00 in0.0 mm
06:42 PM 79.5°F26.4°C 46.2°F7.9°C 31% 3.4 mph 5.5 kmh 5.8 mph9.3 kmh 30.04 in1017.3 mb 0.00 in0.0 mm 0.00 in0.0 mm 0.00 in0.0 mm
06:44 PM 79.5°F26.4°C 46.2°F7.9°C 31% 2.7 mph NW4.3 kmh NW 5.1 mph8.2 kmh 30.05 in1017.6 mb 0.00 in0.0 mm 0.00 in0.0 mm 0.00 in0.0 mm
06:46 PM 79.3°F26.3°C 45.1°F7.3°C 30% 3.4 mph NNE5.5 kmh NNE 8.1 mph13.0 kmh 30.05 in1017.6 mb 0.00 in0.0 mm 0.00 in0.0 mm 0.00 in0.0 mm
06:49 PM 79.0°F26.1°C 45.7°F7.6°C 31% 4.0 mph 6.4 kmh 11.9 mph19.2 kmh 30.05 in1017.6 mb 0.00 in0.0 mm 0.00 in0.0 mm 0.00 in0.0 mm
06:51 PM 78.8°F26.0°C 45.7°F7.6°C 31% 3.4 mph NE5.5 kmh NE 3.8 mph6.1 kmh 30.05 in1017.6 mb 0.00 in0.0 mm 0.00 in0.0 mm 0.00 in0.0 mm
06:53 PM 78.6°F25.9°C 45.5°F7.5°C 31% 4.0 mph NNE6.4 kmh NNE 6.3 mph10.1 kmh 30.05 in1017.6 mb 0.00 in0.0 mm 0.00 in0.0 mm 0.00 in0.0 mm
06:55 PM 78.6°F25.9°C 45.5°F7.5°C 31% 3.4 mph SW5.5 kmh SW 6.3 mph10.1 kmh 30.05 in1017.6 mb 0.00 in0.0 mm 0.00 in0.0 mm 0.00 in0.0 mm
06:58 PM 78.4°F25.8°C 45.3°F7.4°C 31% 2.9 mph 4.7 kmh 4.9 mph7.9 kmh 30.05 in1017.6 mb 0.00 in0.0 mm 0.00 in0.0 mm 0.00 in0.0 mm
07:00 PM 78.1°F25.6°C 45.9°F7.7°C 32% 3.6 mph 5.8 kmh 10.3 mph16.6 kmh 30.05 in1017.6 mb 0.00 in0.0 mm 0.00 in0.0 mm 0.00 in0.0 mm
07:02 PM 77.9°F25.5°C 45.7°F7.6°C 32% 3.1 mph NE5.0 kmh NE 6.3 mph10.1 kmh 30.05 in1017.6 mb 0.00 in0.0 mm 0.00 in0.0 mm 0.00 in0.0 mm
07:04 PM 77.9°F25.5°C 45.7°F7.6°C 32% 3.1 mph S5.0 kmh S 6.5 mph10.5 kmh 30.05 in1017.6 mb 0.00 in0.0 mm 0.00 in0.0 mm 0.00 in0.0 mm
07:06 PM 77.7°F25.4°C 45.5°F7.5°C 32% 2.7 mph ESE4.3 kmh ESE 3.4 mph5.5 kmh 30.05 in1017.6 mb 0.00 in0.0 mm 0.00 in0.0 mm 0.00 in0.0 mm
07:08 PM 77.5°F25.3°C 45.3°F7.4°C 32% 3.6 mph E5.8 kmh E 5.6 mph9.0 kmh 30.05 in1017.6 mb 0.00 in0.0 mm 0.00 in0.0 mm 0.00 in0.0 mm
07:10 PM 77.5°F25.3°C 45.3°F7.4°C 32% 3.4 mph E5.5 kmh E 4.5 mph7.2 kmh 30.05 in1017.6 mb 0.00 in0.0 mm 0.00 in0.0 mm 0.00 in0.0 mm
07:13 PM 77.2°F25.1°C 45.0°F7.2°C 32% 3.1 mph NE5.0 kmh NE 3.8 mph6.1 kmh 30.05 in1017.6 mb 0.00 in0.0 mm 0.00 in0.0 mm 0.00 in0.0 mm
07:15 PM 77.0°F25.0°C 45.0°F7.2°C 32% 3.1 mph E5.0 kmh E 6.3 mph10.1 kmh 30.05 in1017.6 mb 0.00 in0.0 mm 0.00 in0.0 mm 0.00 in0.0 mm
07:17 PM 76.8°F24.9°C 45.5°F7.5°C 33% 3.1 mph WNW5.0 kmh WNW 4.9 mph7.9 kmh 30.05 in1017.6 mb 0.00 in0.0 mm 0.00 in0.0 mm 0.00 in0.0 mm
07:20 PM 76.6°F24.8°C 45.3°F7.4°C 33% 3.1 mph NW5.0 kmh NW 6.5 mph10.5 kmh 30.05 in1017.6 mb 0.00 in0.0 mm 0.00 in0.0 mm 0.00 in0.0 mm
07:22 PM 76.6°F24.8°C 45.3°F7.4°C 33% 2.7 mph SE4.3 kmh SE 5.4 mph8.7 kmh 30.06 in1017.9 mb 0.00 in0.0 mm 0.00 in0.0 mm 0.00 in0.0 mm
07:24 PM 76.3°F24.6°C 45.1°F7.3°C 33% 3.1 mph ENE5.0 kmh ENE 8.5 mph13.7 kmh 30.06 in1017.9 mb 0.00 in0.0 mm 0.00 in0.0 mm 0.00 in0.0 mm
07:26 PM 76.3°F24.6°C 45.1°F7.3°C 33% 2.5 mph NNE4.0 kmh NNE 2.7 mph4.3 kmh 30.05 in1017.6 mb 0.00 in0.0 mm 0.00 in0.0 mm 0.00 in0.0 mm
07:28 PM 76.1°F24.5°C 45.0°F7.2°C 33% 2.2 mph NNE3.5 kmh NNE 2.9 mph4.7 kmh 30.05 in1017.6 mb 0.00 in0.0 mm 0.00 in0.0 mm 0.00 in0.0 mm
07:31 PM 75.9°F24.4°C 44.8°F7.1°C 33% 2.0 mph SE3.2 kmh SE 3.6 mph5.8 kmh 30.05 in1017.6 mb 0.00 in0.0 mm 0.00 in0.0 mm 0.00 in0.0 mm
07:33 PM 75.7°F24.3°C 44.6°F7.0°C 33% 2.7 mph NNE4.3 kmh NNE 10.1 mph16.3 kmh 30.05 in1017.6 mb 0.00 in0.0 mm 0.00 in0.0 mm 0.00 in0.0 mm
07:35 PM 75.6°F24.2°C 45.1°F7.3°C 34% 2.7 mph E4.3 kmh E 5.4 mph8.7 kmh 30.06 in1017.9 mb 0.00 in0.0 mm 0.00 in0.0 mm 0.00 in0.0 mm
07:37 PM 75.4°F24.1°C 45.1°F7.3°C 34% 3.4 mph ENE5.5 kmh ENE 5.8 mph9.3 kmh 30.06 in1017.9 mb 0.00 in0.0 mm 0.00 in0.0 mm 0.00 in0.0 mm
07:39 PM 75.0°F23.9°C 44.8°F7.1°C 34% 4.3 mph E6.9 kmh E 8.3 mph13.4 kmh 30.06 in1017.9 mb 0.00 in0.0 mm 0.00 in0.0 mm 0.00 in0.0 mm
07:42 PM 75.0°F23.9°C 44.8°F7.1°C 34% 4.0 mph E6.4 kmh E 5.8 mph9.3 kmh 30.06 in1017.9 mb 0.00 in0.0 mm 0.00 in0.0 mm 0.00 in0.0 mm
07:44 PM 74.8°F23.8°C 44.6°F7.0°C 34% 4.9 mph E7.9 kmh E 7.6 mph12.2 kmh 30.06 in1017.9 mb 0.00 in0.0 mm 0.00 in0.0 mm 0.00 in0.0 mm
07:46 PM 74.7°F23.7°C 44.4°F6.9°C 34% 4.5 mph E7.2 kmh E 6.3 mph10.1 kmh 30.06 in1017.9 mb 0.00 in0.0 mm 0.00 in0.0 mm 0.00 in0.0 mm
07:48 PM 74.5°F23.6°C 45.0°F7.2°C 35% 4.9 mph ESE7.9 kmh ESE 7.4 mph11.9 kmh 30.06 in1017.9 mb 0.00 in0.0 mm 0.00 in0.0 mm 0.00 in0.0 mm
07:50 PM 74.3°F23.5°C 45.0°F7.2°C 35% 4.5 mph ENE7.2 kmh ENE 7.2 mph11.6 kmh 30.06 in1017.9 mb 0.00 in0.0 mm 0.00 in0.0 mm 0.00 in0.0 mm
07:53 PM 74.3°F23.5°C 45.0°F7.2°C 35% 3.8 mph ENE6.1 kmh ENE 4.5 mph7.2 kmh 30.06 in1017.9 mb 0.00 in0.0 mm 0.00 in0.0 mm 0.00 in0.0 mm
07:55 PM 74.1°F23.4°C 44.8°F7.1°C 35% 3.8 mph E6.1 kmh E 5.4 mph8.7 kmh 30.06 in1017.9 mb 0.00 in0.0 mm 0.00 in0.0 mm 0.00 in0.0 mm
07:57 PM 73.9°F23.3°C 44.6°F7.0°C 35% 3.1 mph ENE5.0 kmh ENE 5.1 mph8.2 kmh 30.06 in1017.9 mb 0.00 in0.0 mm 0.00 in0.0 mm 0.00 in0.0 mm
08:00 PM 73.9°F23.3°C 44.6°F7.0°C 35% 2.9 mph ESE4.7 kmh ESE 4.7 mph7.6 kmh 30.06 in1017.9 mb 0.00 in0.0 mm 0.00 in0.0 mm 0.00 in0.0 mm
08:02 PM 73.9°F23.3°C 44.6°F7.0°C 35% 3.1 mph E5.0 kmh E 6.3 mph10.1 kmh 30.06 in1017.9 mb 0.00 in0.0 mm 0.00 in0.0 mm 0.00 in0.0 mm
08:04 PM 73.8°F23.2°C 44.4°F6.9°C 35% 3.6 mph ESE5.8 kmh ESE 5.6 mph9.0 kmh 30.06 in1017.9 mb 0.00 in0.0 mm 0.00 in0.0 mm 0.00 in0.0 mm
08:06 PM 73.6°F23.1°C 44.2°F6.8°C 35% 2.7 mph ESE4.3 kmh ESE 4.0 mph6.4 kmh 30.06 in1017.9 mb 0.00 in0.0 mm 0.00 in0.0 mm 0.00 in0.0 mm
08:08 PM 73.4°F23.0°C 44.8°F7.1°C 36% 2.0 mph ENE3.2 kmh ENE 2.2 mph3.5 kmh 30.06 in1017.9 mb 0.00 in0.0 mm 0.00 in0.0 mm 0.00 in0.0 mm
08:11 PM 73.2°F22.9°C 45.3°F7.4°C 37% 2.0 mph SE3.2 kmh SE 4.3 mph6.9 kmh 30.06 in1017.9 mb 0.00 in0.0 mm 0.00 in0.0 mm 0.00 in0.0 mm
08:13 PM 73.2°F22.9°C 45.3°F7.4°C 37% 2.7 mph ESE4.3 kmh ESE 5.8 mph9.3 kmh 30.06 in1017.9 mb 0.00 in0.0 mm 0.00 in0.0 mm 0.00 in0.0 mm
08:15 PM 73.0°F22.8°C 45.1°F7.3°C 37% 3.4 mph E5.5 kmh E 5.8 mph9.3 kmh 30.07 in1018.3 mb 0.00 in0.0 mm 0.00 in0.0 mm 0.00 in0.0 mm
08:17 PM 72.9°F22.7°C 45.1°F7.3°C 37% 3.8 mph E6.1 kmh E 5.8 mph9.3 kmh 30.07 in1018.3 mb 0.00 in0.0 mm 0.00 in0.0 mm 0.00 in0.0 mm
08:19 PM 72.7°F22.6°C 45.0°F7.2°C 37% 4.7 mph SE7.6 kmh SE 6.9 mph11.1 kmh 30.07 in1018.3 mb 0.00 in0.0 mm 0.00 in0.0 mm 0.00 in0.0 mm
08:21 PM 72.7°F22.6°C 45.7°F7.6°C 38% 3.8 mph SE6.1 kmh SE 4.7 mph7.6 kmh 30.07 in1018.3 mb 0.00 in0.0 mm 0.00 in0.0 mm 0.00 in0.0 mm
08:24 PM 72.5°F22.5°C 45.5°F7.5°C 38% 3.1 mph ESE5.0 kmh ESE 4.7 mph7.6 kmh 30.07 in1018.3 mb 0.00 in0.0 mm 0.00 in0.0 mm 0.00 in0.0 mm
08:26 PM 72.3°F22.4°C 45.3°F7.4°C 38% 2.9 mph E4.7 kmh E 7.4 mph11.9 kmh 30.07 in1018.3 mb 0.00 in0.0 mm 0.00 in0.0 mm 0.00 in0.0 mm
08:28 PM 72.3°F22.4°C 45.3°F7.4°C 38% 2.2 mph SE3.5 kmh SE 6.7 mph10.8 kmh 30.07 in1018.3 mb 0.00 in0.0 mm 0.00 in0.0 mm 0.00 in0.0 mm
08:31 PM 72.3°F22.4°C 45.3°F7.4°C 38% 2.2 mph ESE3.5 kmh ESE 4.3 mph6.9 kmh 30.07 in1018.3 mb 0.00 in0.0 mm 0.00 in0.0 mm 0.00 in0.0 mm
08:33 PM 72.1°F22.3°C 45.1°F7.3°C 38% 2.7 mph SSE4.3 kmh SSE 5.1 mph8.2 kmh 30.07 in1018.3 mb 0.00 in0.0 mm 0.00 in0.0 mm 0.00 in0.0 mm
08:35 PM 72.1°F22.3°C 45.1°F7.3°C 38% 2.9 mph ESE4.7 kmh ESE 4.9 mph7.9 kmh 30.07 in1018.3 mb 0.00 in0.0 mm 0.00 in0.0 mm 0.00 in0.0 mm
08:37 PM 72.0°F22.2°C 45.0°F7.2°C 38% 3.6 mph SE5.8 kmh SE 5.4 mph8.7 kmh 30.07 in1018.3 mb 0.00 in0.0 mm 0.00 in0.0 mm 0.00 in0.0 mm
08:40 PM 72.0°F22.2°C 45.7°F7.6°C 39% 3.8 mph ESE6.1 kmh ESE 7.4 mph11.9 kmh 30.07 in1018.3 mb 0.00 in0.0 mm 0.00 in0.0 mm 0.00 in0.0 mm
08:42 PM 71.8°F22.1°C 45.5°F7.5°C 39% 4.0 mph ESE6.4 kmh ESE 6.7 mph10.8 kmh 30.07 in1018.3 mb 0.00 in0.0 mm 0.00 in0.0 mm 0.00 in0.0 mm
08:44 PM 71.8°F22.1°C 45.5°F7.5°C 39% 2.9 mph SSE4.7 kmh SSE 4.5 mph7.2 kmh 30.07 in1018.3 mb 0.00 in0.0 mm 0.00 in0.0 mm 0.00 in0.0 mm
08:46 PM 71.8°F22.1°C 45.5°F7.5°C 39% 2.9 mph SE4.7 kmh SE 4.7 mph7.6 kmh 30.07 in1018.3 mb 0.00 in0.0 mm 0.00 in0.0 mm 0.00 in0.0 mm
08:49 PM 71.8°F22.1°C 45.5°F7.5°C 39% 2.9 mph SSW4.7 kmh SSW 4.9 mph7.9 kmh 30.07 in1018.3 mb 0.00 in0.0 mm 0.00 in0.0 mm 0.00 in0.0 mm
08:51 PM 71.6°F22.0°C 45.3°F7.4°C 39% 3.6 mph ESE5.8 kmh ESE 7.4 mph11.9 kmh 30.07 in1018.3 mb 0.00 in0.0 mm 0.00 in0.0 mm 0.00 in0.0 mm
08:53 PM 71.6°F22.0°C 45.3°F7.4°C 39% 3.6 mph ENE5.8 kmh ENE 5.1 mph8.2 kmh 30.07 in1018.3 mb 0.00 in0.0 mm 0.00 in0.0 mm 0.00 in0.0 mm
08:55 PM 71.6°F22.0°C 45.3°F7.4°C 39% 2.9 mph ESE4.7 kmh ESE 3.4 mph5.5 kmh 30.07 in1018.3 mb 0.00 in0.0 mm 0.00 in0.0 mm 0.00 in0.0 mm
08:57 PM 71.4°F21.9°C 45.1°F7.3°C 39% 2.7 mph E4.3 kmh E 4.7 mph7.6 kmh 30.07 in1018.3 mb 0.00 in0.0 mm 0.00 in0.0 mm 0.00 in0.0 mm
09:00 PM 71.4°F21.9°C 45.1°F7.3°C 39% 2.9 mph SE4.7 kmh SE 4.0 mph6.4 kmh 30.07 in1018.3 mb 0.00 in0.0 mm 0.00 in0.0 mm 0.00 in0.0 mm
09:02 PM 71.4°F21.9°C 45.1°F7.3°C 39% 2.9 mph S4.7 kmh S 4.5 mph7.2 kmh 30.07 in1018.3 mb 0.00 in0.0 mm 0.00 in0.0 mm 0.00 in0.0 mm
09:04 PM 71.2°F21.8°C 45.7°F7.6°C 40% 3.4 mph ESE5.5 kmh ESE 6.3 mph10.1 kmh 30.07 in1018.3 mb 0.00 in0.0 mm 0.00 in0.0 mm 0.00 in0.0 mm
09:06 PM 70.9°F21.6°C 45.3°F7.4°C 40% 3.6 mph ESE5.8 kmh ESE 4.9 mph7.9 kmh 30.07 in1018.3 mb 0.00 in0.0 mm 0.00 in0.0 mm 0.00 in0.0 mm
09:08 PM 70.9°F21.6°C 45.3°F7.4°C 40% 3.8 mph SSE6.1 kmh SSE 5.1 mph8.2 kmh 30.07 in1018.3 mb 0.00 in0.0 mm 0.00 in0.0 mm 0.00 in0.0 mm
09:11 PM 70.7°F21.5°C 45.1°F7.3°C 40% 3.1 mph ESE5.0 kmh ESE 3.4 mph5.5 kmh 30.07 in1018.3 mb 0.00 in0.0 mm 0.00 in0.0 mm 0.00 in0.0 mm
09:13 PM 70.5°F21.4°C 45.0°F7.2°C 40% 2.2 mph SE3.5 kmh SE 2.2 mph3.5 kmh 30.07 in1018.3 mb 0.00 in0.0 mm 0.00 in0.0 mm 0.00 in0.0 mm
09:15 PM 70.3°F21.3°C 45.0°F7.2°C 40% 2.5 mph ESE4.0 kmh ESE 2.9 mph4.7 kmh 30.08 in1018.6 mb 0.00 in0.0 mm 0.00 in0.0 mm 0.00 in0.0 mm
09:18 PM 70.3°F21.3°C 45.0°F7.2°C 40% 2.5 mph SE4.0 kmh SE 3.8 mph6.1 kmh 30.07 in1018.3 mb 0.00 in0.0 mm 0.00 in0.0 mm 0.00 in0.0 mm
09:20 PM 70.2°F21.2°C 45.3°F7.4°C 41% 2.7 mph ESE4.3 kmh ESE 4.9 mph7.9 kmh 30.07 in1018.3 mb 0.00 in0.0 mm 0.00 in0.0 mm 0.00 in0.0 mm
09:22 PM 69.8°F21.0°C 45.0°F7.2°C 41% 3.1 mph SE5.0 kmh SE 5.1 mph8.2 kmh 30.07 in1018.3 mb 0.00 in0.0 mm 0.00 in0.0 mm 0.00 in0.0 mm
09:24 PM 69.6°F20.9°C 45.0°F7.2°C 41% 2.2 mph SE3.5 kmh SE 3.4 mph5.5 kmh 30.07 in1018.3 mb 0.00 in0.0 mm 0.00 in0.0 mm 0.00 in0.0 mm
09:26 PM 69.6°F20.9°C 45.0°F7.2°C 41% 2.7 mph ESE4.3 kmh ESE 5.1 mph8.2 kmh 30.07 in1018.3 mb 0.00 in0.0 mm 0.00 in0.0 mm 0.00 in0.0 mm
09:28 PM 69.4°F20.8°C 44.8°F7.1°C 41% 2.0 mph ESE3.2 kmh ESE 3.4 mph5.5 kmh 30.07 in1018.3 mb 0.00 in0.0 mm 0.00 in0.0 mm 0.00 in0.0 mm
09:30 PM 69.4°F20.8°C 45.3°F7.4°C 42% 1.6 mph SE2.6 kmh SE 4.0 mph6.4 kmh 30.07 in1018.3 mb 0.00 in0.0 mm 0.00 in0.0 mm 0.00 in0.0 mm
09:32 PM 69.4°F20.8°C 45.3°F7.4°C 42% 1.8 mph ESE2.9 kmh ESE 5.6 mph9.0 kmh 30.07 in1018.3 mb 0.00 in0.0 mm 0.00 in0.0 mm 0.00 in0.0 mm
09:34 PM 69.3°F20.7°C 45.1°F7.3°C 42% 2.0 mph SE3.2 kmh SE 3.1 mph5.0 kmh 30.07 in1018.3 mb 0.00 in0.0 mm 0.00 in0.0 mm 0.00 in0.0 mm
09:37 PM 69.3°F20.7°C 45.1°F7.3°C 42% 2.9 mph ESE4.7 kmh ESE 6.9 mph11.1 kmh 30.07 in1018.3 mb 0.00 in0.0 mm 0.00 in0.0 mm 0.00 in0.0 mm
09:39 PM 69.1°F20.6°C 45.0°F7.2°C 42% 3.4 mph SSE5.5 kmh SSE 4.5 mph7.2 kmh 30.07 in1018.3 mb 0.00 in0.0 mm 0.00 in0.0 mm 0.00 in0.0 mm
09:41 PM 68.9°F20.5°C 44.8°F7.1°C 42% 3.1 mph ESE5.0 kmh ESE 6.0 mph9.7 kmh 30.07 in1018.3 mb 0.00 in0.0 mm 0.00 in0.0 mm 0.00 in0.0 mm
09:43 PM 68.7°F20.4°C 44.8°F7.1°C 42% 3.6 mph E5.8 kmh E 6.9 mph11.1 kmh 30.07 in1018.3 mb 0.00 in0.0 mm 0.00 in0.0 mm 0.00 in0.0 mm
09:45 PM 68.7°F20.4°C 45.3°F7.4°C 43% 3.8 mph SE6.1 kmh SE 5.6 mph9.0 kmh 30.07 in1018.3 mb 0.00 in0.0 mm 0.00 in0.0 mm 0.00 in0.0 mm
09:48 PM 68.7°F20.4°C 45.3°F7.4°C 43% 3.8 mph SE6.1 kmh SE 5.1 mph8.2 kmh 30.07 in1018.3 mb 0.00 in0.0 mm 0.00 in0.0 mm 0.00 in0.0 mm
09:50 PM 68.7°F20.4°C 45.3°F7.4°C 43% 3.8 mph SSE6.1 kmh SSE 4.7 mph7.6 kmh 30.07 in1018.3 mb 0.00 in0.0 mm 0.00 in0.0 mm 0.00 in0.0 mm
09:52 PM 68.7°F20.4°C 45.3°F7.4°C 43% 3.1 mph SSE5.0 kmh SSE 3.8 mph6.1 kmh 30.08 in1018.6 mb 0.00 in0.0 mm 0.00 in0.0 mm 0.00 in0.0 mm
09:54 PM 68.7°F20.4°C 45.3°F7.4°C 43% 2.7 mph E4.3 kmh E 3.8 mph6.1 kmh 30.08 in1018.6 mb 0.00 in0.0 mm 0.00 in0.0 mm 0.00 in0.0 mm
09:56 PM 68.7°F20.4°C 45.3°F7.4°C 43% 2.2 mph ESE3.5 kmh ESE 2.9 mph4.7 kmh 30.08 in1018.6 mb 0.00 in0.0 mm 0.00 in0.0 mm 0.00 in0.0 mm
09:58 PM 68.7°F20.4°C 45.3°F7.4°C 43% 2.5 mph SE4.0 kmh SE 3.8 mph6.1 kmh 30.08 in1018.6 mb 0.00 in0.0 mm 0.00 in0.0 mm 0.00 in0.0 mm
10:00 PM 68.9°F20.5°C 45.5°F7.5°C 43% 2.5 mph S4.0 kmh S 3.4 mph5.5 kmh 30.08 in1018.6 mb 0.00 in0.0 mm 0.00 in0.0 mm 0.00 in0.0 mm
10:03 PM 68.9°F20.5°C 45.5°F7.5°C 43% 2.5 mph ESE4.0 kmh ESE 3.8 mph6.1 kmh 30.08 in1018.6 mb 0.00 in0.0 mm 0.00 in0.0 mm 0.00 in0.0 mm
10:05 PM 68.9°F20.5°C 45.5°F7.5°C 43% 2.5 mph ESE4.0 kmh ESE 5.1 mph8.2 kmh 30.08 in1018.6 mb 0.00 in0.0 mm 0.00 in0.0 mm 0.00 in0.0 mm
10:07 PM 68.9°F20.5°C 45.5°F7.5°C 43% 2.5 mph S4.0 kmh S 5.1 mph8.2 kmh 30.08 in1018.6 mb 0.00 in0.0 mm 0.00 in0.0 mm 0.00 in0.0 mm
10:09 PM 68.9°F20.5°C 45.5°F7.5°C 43% 2.0 mph SE3.2 kmh SE 2.7 mph4.3 kmh 30.08 in1018.6 mb 0.00 in0.0 mm 0.00 in0.0 mm 0.00 in0.0 mm
10:11 PM 68.9°F20.5°C 45.5°F7.5°C 43% 2.0 mph ESE3.2 kmh ESE 3.6 mph5.8 kmh 30.08 in1018.6 mb 0.00 in0.0 mm 0.00 in0.0 mm 0.00 in0.0 mm
10:14 PM 68.7°F20.4°C 45.3°F7.4°C 43% 2.0 mph E3.2 kmh E 3.4 mph5.5 kmh 30.08 in1018.6 mb 0.00 in0.0 mm 0.00 in0.0 mm 0.00 in0.0 mm
10:16 PM 68.7°F20.4°C 45.3°F7.4°C 43% 2.5 mph E4.0 kmh E 3.4 mph5.5 kmh 30.08 in1018.6 mb 0.00 in0.0 mm 0.00 in0.0 mm 0.00 in0.0 mm
10:18 PM 68.7°F20.4°C 45.3°F7.4°C 43% 2.0 mph SSE3.2 kmh SSE 2.2 mph3.5 kmh 30.08 in1018.6 mb 0.00 in0.0 mm 0.00 in0.0 mm 0.00 in0.0 mm
10:20 PM 68.7°F20.4°C 45.3°F7.4°C 43% 1.6 mph SSE2.6 kmh SSE 1.6 mph2.6 kmh 30.08 in1018.6 mb 0.00 in0.0 mm 0.00 in0.0 mm 0.00 in0.0 mm
10:22 PM 68.7°F20.4°C 45.3°F7.4°C 43% 1.3 mph E2.1 kmh E 1.8 mph2.9 kmh 30.08 in1018.6 mb 0.00 in0.0 mm 0.00 in0.0 mm 0.00 in0.0 mm
10:24 PM 68.7°F20.4°C 45.3°F7.4°C 43% 1.6 mph E2.6 kmh E 3.8 mph6.1 kmh 30.08 in1018.6 mb 0.00 in0.0 mm 0.00 in0.0 mm 0.00 in0.0 mm
10:27 PM 68.5°F20.3°C 45.1°F7.3°C 43% 1.8 mph SE2.9 kmh SE 2.9 mph4.7 kmh 30.08 in1018.6 mb 0.00 in0.0 mm 0.00 in0.0 mm 0.00 in0.0 mm
10:29 PM 68.5°F20.3°C 45.1°F7.3°C 43% 2.0 mph SE3.2 kmh SE 4.0 mph6.4 kmh 30.08 in1018.6 mb 0.00 in0.0 mm 0.00 in0.0 mm 0.00 in0.0 mm
10:31 PM 68.5°F20.3°C 45.1°F7.3°C 43% 2.0 mph ESE3.2 kmh ESE 3.8 mph6.1 kmh 30.08 in1018.6 mb 0.00 in0.0 mm 0.00 in0.0 mm 0.00 in0.0 mm
10:33 PM 68.5°F20.3°C 45.1°F7.3°C 43% 1.3 mph ESE2.1 kmh ESE 1.3 mph2.1 kmh 30.08 in1018.6 mb 0.00 in0.0 mm 0.00 in0.0 mm 0.00 in0.0 mm
10:35 PM 68.5°F20.3°C 45.7°F7.6°C 44% 2.0 mph E3.2 kmh E 3.8 mph6.1 kmh 30.08 in1018.6 mb 0.00 in0.0 mm 0.00 in0.0 mm 0.00 in0.0 mm
10:37 PM 68.5°F20.3°C 45.7°F7.6°C 44% 2.0 mph ESE3.2 kmh ESE 2.9 mph4.7 kmh 30.08 in1018.6 mb 0.00 in0.0 mm 0.00 in0.0 mm 0.00 in0.0 mm
10:40 PM 68.5°F20.3°C 45.7°F7.6°C 44% 1.8 mph ESE2.9 kmh ESE 3.8 mph6.1 kmh 30.08 in1018.6 mb 0.00 in0.0 mm 0.00 in0.0 mm 0.00 in0.0 mm
10:42 PM 68.5°F20.3°C 45.7°F7.6°C 44% 1.8 mph SE2.9 kmh SE 2.5 mph4.0 kmh 30.08 in1018.6 mb 0.00 in0.0 mm 0.00 in0.0 mm 0.00 in0.0 mm
10:44 PM 68.5°F20.3°C 45.7°F7.6°C 44% 1.3 mph ESE2.1 kmh ESE 2.2 mph3.5 kmh 30.09 in1019.0 mb 0.00 in0.0 mm 0.00 in0.0 mm 0.00 in0.0 mm
10:46 PM 68.5°F20.3°C 45.7°F7.6°C 44% 1.1 mph E1.8 kmh E 1.6 mph2.6 kmh 30.08 in1018.6 mb 0.00 in0.0 mm 0.00 in0.0 mm 0.00 in0.0 mm
10:48 PM 68.5°F20.3°C 45.7°F7.6°C 44% 1.1 mph SE1.8 kmh SE 2.9 mph4.7 kmh 30.08 in1018.6 mb 0.00 in0.0 mm 0.00 in0.0 mm 0.00 in0.0 mm
10:50 PM 68.5°F20.3°C 45.7°F7.6°C 44% 1.6 mph ESE2.6 kmh ESE 4.0 mph6.4 kmh 30.08 in1018.6 mb 0.00 in0.0 mm 0.00 in0.0 mm 0.00 in0.0 mm
10:53 PM 68.5°F20.3°C 45.7°F7.6°C 44% 1.6 mph SE2.6 kmh SE 3.1 mph5.0 kmh 30.08 in1018.6 mb 0.00 in0.0 mm 0.00 in0.0 mm 0.00 in0.0 mm
10:55 PM 68.5°F20.3°C 45.7°F7.6°C 44% 1.1 mph SE1.8 kmh SE 2.0 mph3.2 kmh 30.08 in1018.6 mb 0.00 in0.0 mm 0.00 in0.0 mm 0.00 in0.0 mm
10:57 PM 68.5°F20.3°C 45.7°F7.6°C 44% 0.9 mph E1.4 kmh E 1.3 mph2.1 kmh 30.08 in1018.6 mb 0.00 in0.0 mm 0.00 in0.0 mm 0.00 in0.0 mm
10:59 PM 68.4°F20.2°C 45.7°F7.6°C 44% 1.6 mph SSE2.6 kmh SSE 3.4 mph5.5 kmh 30.08 in1018.6 mb 0.00 in0.0 mm 0.00 in0.0 mm 0.00 in0.0 mm
11:01 PM 68.4°F20.2°C 46.2°F7.9°C 45% 1.8 mph SE2.9 kmh SE 2.2 mph3.5 kmh 30.08 in1018.6 mb 0.00 in0.0 mm 0.00 in0.0 mm 0.00 in0.0 mm
11:03 PM 68.4°F20.2°C 46.2°F7.9°C 45% 1.6 mph ESE2.6 kmh ESE 2.7 mph4.3 kmh 30.08 in1018.6 mb 0.00 in0.0 mm 0.00 in0.0 mm 0.00 in0.0 mm
11:06 PM 68.4°F20.2°C 46.2°F7.9°C 45% 2.2 mph ESE3.5 kmh ESE 5.1 mph8.2 kmh 30.08 in1018.6 mb 0.00 in0.0 mm 0.00 in0.0 mm 0.00 in0.0 mm
11:08 PM 68.2°F20.1°C 46.0°F7.8°C 45% 2.9 mph E4.7 kmh E 4.5 mph7.2 kmh 30.08 in1018.6 mb 0.00 in0.0 mm 0.00 in0.0 mm 0.00 in0.0 mm
11:10 PM 68.2°F20.1°C 46.0°F7.8°C 45% 3.1 mph SE5.0 kmh SE 4.7 mph7.6 kmh 30.08 in1018.6 mb 0.00 in0.0 mm 0.00 in0.0 mm 0.00 in0.0 mm
11:13 PM 68.2°F20.1°C 46.0°F7.8°C 45% 2.7 mph SSE4.3 kmh SSE 3.8 mph6.1 kmh 30.08 in1018.6 mb 0.00 in0.0 mm 0.00 in0.0 mm 0.00 in0.0 mm
11:15 PM 68.2°F20.1°C 46.0°F7.8°C 45% 2.7 mph E4.3 kmh E 3.8 mph6.1 kmh 30.08 in1018.6 mb 0.00 in0.0 mm 0.00 in0.0 mm 0.00 in0.0 mm
11:17 PM 68.2°F20.1°C 46.0°F7.8°C 45% 1.8 mph SE2.9 kmh SE 2.5 mph4.0 kmh 30.08 in1018.6 mb 0.00 in0.0 mm 0.00 in0.0 mm 0.00 in0.0 mm
11:19 PM 68.2°F20.1°C 46.0°F7.8°C 45% 2.0 mph SE3.2 kmh SE 3.4 mph5.5 kmh 30.08 in1018.6 mb 0.00 in0.0 mm 0.00 in0.0 mm 0.00 in0.0 mm
11:22 PM 68.2°F20.1°C 46.6°F8.1°C 46% 1.8 mph ESE2.9 kmh ESE 3.1 mph5.0 kmh 30.08 in1018.6 mb 0.00 in0.0 mm 0.00 in0.0 mm 0.00 in0.0 mm
11:24 PM 68.2°F20.1°C 46.6°F8.1°C 46% 2.5 mph E4.0 kmh E 4.7 mph7.6 kmh 30.08 in1018.6 mb 0.00 in0.0 mm 0.00 in0.0 mm 0.00 in0.0 mm
11:26 PM 68.2°F20.1°C 46.6°F8.1°C 46% 2.5 mph SSE4.0 kmh SSE 3.6 mph5.8 kmh 30.08 in1018.6 mb 0.00 in0.0 mm 0.00 in0.0 mm 0.00 in0.0 mm
11:28 PM 68.2°F20.1°C 46.6°F8.1°C 46% 3.1 mph ESE5.0 kmh ESE 5.4 mph8.7 kmh 30.08 in1018.6 mb 0.00 in0.0 mm 0.00 in0.0 mm 0.00 in0.0 mm
11:31 PM 68.2°F20.1°C 46.6°F8.1°C 46% 3.1 mph E5.0 kmh E 4.7 mph7.6 kmh 30.08 in1018.6 mb 0.00 in0.0 mm 0.00 in0.0 mm 0.00 in0.0 mm
11:33 PM 68.2°F20.1°C 46.6°F8.1°C 46% 3.1 mph SE5.0 kmh SE 3.8 mph6.1 kmh 30.08 in1018.6 mb 0.00 in0.0 mm 0.00 in0.0 mm 0.00 in0.0 mm
11:35 PM 67.8°F19.9°C 46.2°F7.9°C 46% 2.9 mph E4.7 kmh E 4.0 mph6.4 kmh 30.08 in1018.6 mb 0.00 in0.0 mm 0.00 in0.0 mm 0.00 in0.0 mm
11:37 PM 67.8°F19.9°C 46.2°F7.9°C 46% 2.2 mph ESE3.5 kmh ESE 2.5 mph4.0 kmh 30.08 in1018.6 mb 0.00 in0.0 mm 0.00 in0.0 mm 0.00 in0.0 mm
11:39 PM 67.8°F19.9°C 46.2°F7.9°C 46% 2.7 mph SE4.3 kmh SE 4.3 mph6.9 kmh 30.08 in1018.6 mb 0.00 in0.0 mm 0.00 in0.0 mm 0.00 in0.0 mm
11:41 PM 67.8°F19.9°C 46.9°F8.3°C 47% 3.4 mph ESE5.5 kmh ESE 4.3 mph6.9 kmh 30.08 in1018.6 mb 0.00 in0.0 mm 0.00 in0.0 mm 0.00 in0.0 mm
11:43 PM 68.2°F20.1°C 47.1°F8.4°C 47% 3.6 mph SE5.8 kmh SE 4.5 mph7.2 kmh 30.08 in1018.6 mb 0.00 in0.0 mm 0.00 in0.0 mm 0.00 in0.0 mm
11:46 PM 68.4°F20.2°C 47.3°F8.5°C 47% 4.3 mph ESE6.9 kmh ESE 6.0 mph9.7 kmh 30.08 in1018.6 mb 0.00 in0.0 mm 0.00 in0.0 mm 0.00 in0.0 mm
11:48 PM 68.4°F20.2°C 47.3°F8.5°C 47% 4.3 mph ESE6.9 kmh ESE 5.4 mph8.7 kmh 30.08 in1018.6 mb 0.00 in0.0 mm 0.00 in0.0 mm 0.00 in0.0 mm
11:50 PM 68.2°F20.1°C 46.6°F8.1°C 46% 4.7 mph ESE7.6 kmh ESE 6.3 mph10.1 kmh 30.08 in1018.6 mb 0.00 in0.0 mm 0.00 in0.0 mm 0.00 in0.0 mm
11:52 PM 67.8°F19.9°C 46.9°F8.3°C 47% 4.5 mph ESE7.2 kmh ESE 5.4 mph8.7 kmh 30.08 in1018.6 mb 0.00 in0.0 mm 0.00 in0.0 mm 0.00 in0.0 mm
11:55 PM 67.8°F19.9°C 46.9°F8.3°C 47% 4.5 mph ESE7.2 kmh ESE 5.8 mph9.3 kmh 30.08 in1018.6 mb 0.00 in0.0 mm 0.00 in0.0 mm 0.00 in0.0 mm
11:57 PM 67.8°F19.9°C 46.9°F8.3°C 47% 4.5 mph ESE7.2 kmh ESE 5.4 mph8.7 kmh 30.08 in1018.6 mb 0.00 in0.0 mm 0.00 in0.0 mm 0.00 in0.0 mm
11:59 PM 67.8°F19.9°C 46.9°F8.3°C 47% 4.5 mph SE7.2 kmh SE 5.1 mph8.2 kmh 30.08 in1018.6 mb 0.00 in0.0 mm 0.00 in0.0 mm 0.00 in0.0 mm